<?xml version="1.0" encoding="UTF-8" standalone="no" ?>
<gpx xmlns="http://www.topografix.com/GPX/1/1" xmlns:xsi="http://www.w3.org/2001/XMLSchema-instance" xsi:schemaLocation="http://www.topografix.com/GPX/1/1 http://www.topografix.com/GPX/1/1/gpx.xsd" version="1.1" creator="VisuGPX - https://www.visugpx.com">
  <metadata>
    <name>2015-07-17 Bike ride-Ain Circuit No 6 via St Did</name>
    <desc><![CDATA[2015-07-17 Bike ride-Ain Circuit No 6 via St Did]]></desc>
  </metadata>
  <wpt lat="45.92461" lon="4.7372">
    <ele>194.6</ele>
    <name><![CDATA[2015-07-17 10:02 (Start)]]></name>
  </wpt>
  <wpt lat="45.92462" lon="4.73705">
    <ele>175.9</ele>
    <name><![CDATA[2015-07-17 10:02 (End)]]></name>
    <desc><![CDATA[Created by Google My Tracks on Android  Name: 2015-07-17 10:02 Activity type: biking Description: - Total distance: 63.61 km (39.5 mi) Total time: 2:54:49 Moving time: 2:50:59 Average speed: 21.83 km/h (13.6 mi/h) Average moving speed: 22.32 km/h (13.9 mi/h) Max speed: 44.58 km/h (27.7 mi/h) Average pace: 2:45 min/km (4:25 min/mi) Average moving pace: 2:41 min/km (4:20 min/mi) Fastest pace: 1:21 min/km (2:10 min/mi) Max elevation: 339 m (1113 ft) Min elevation: 172 m (565 ft) Elevation gain: 831 m (2727 ft) Max grade: 13 % Min grade: -70 % Recorded: 17/07/2015 10:02]]></desc>
  </wpt>
  <trk>
    <name><![CDATA[2015-07-17 10:02]]></name>
    <trkseg>
      <trkpt lat="45.92461" lon="4.7372">
        <ele>194.600006104</ele>
        <time>2015-07-17T08:02:42.216Z</time>
      </trkpt>
      <trkpt lat="45.92459" lon="4.73715">
        <ele>183.699996948</ele>
        <time>2015-07-17T08:03:11.956Z</time>
      </trkpt>
      <trkpt lat="45.92462" lon="4.73706">
        <ele>172.300003052</ele>
        <time>2015-07-17T08:03:12.953Z</time>
      </trkpt>
      <trkpt lat="45.92464" lon="4.73678">
        <ele>172.899993896</ele>
        <time>2015-07-17T08:03:57.928Z</time>
      </trkpt>
      <trkpt lat="45.92469" lon="4.73652">
        <ele>171.699996948</ele>
        <time>2015-07-17T08:04:01.922Z</time>
      </trkpt>
      <trkpt lat="45.92474" lon="4.73647">
        <ele>172</ele>
        <time>2015-07-17T08:04:03.919Z</time>
      </trkpt>
      <trkpt lat="45.92514" lon="4.73644">
        <ele>174</ele>
        <time>2015-07-17T08:04:12.923Z</time>
      </trkpt>
      <trkpt lat="45.92568" lon="4.73634">
        <ele>176.800003052</ele>
        <time>2015-07-17T08:04:22.951Z</time>
      </trkpt>
      <trkpt lat="45.9259" lon="4.73625">
        <ele>177.899993896</ele>
        <time>2015-07-17T08:04:26.928Z</time>
      </trkpt>
      <trkpt lat="45.9261" lon="4.73624">
        <ele>179.300003052</ele>
        <time>2015-07-17T08:04:29.931Z</time>
      </trkpt>
      <trkpt lat="45.92623" lon="4.73632">
        <ele>178.5</ele>
        <time>2015-07-17T08:04:31.926Z</time>
      </trkpt>
      <trkpt lat="45.92647" lon="4.73684">
        <ele>178.199996948</ele>
        <time>2015-07-17T08:04:38.965Z</time>
      </trkpt>
      <trkpt lat="45.92662" lon="4.73699">
        <ele>178</ele>
        <time>2015-07-17T08:04:41.923Z</time>
      </trkpt>
      <trkpt lat="45.92689" lon="4.73712">
        <ele>177.5</ele>
        <time>2015-07-17T08:04:46.938Z</time>
      </trkpt>
      <trkpt lat="45.92769" lon="4.73733">
        <ele>175.800003052</ele>
        <time>2015-07-17T08:05:01.922Z</time>
      </trkpt>
      <trkpt lat="45.9278" lon="4.73728">
        <ele>176.300003052</ele>
        <time>2015-07-17T08:05:04.922Z</time>
      </trkpt>
      <trkpt lat="45.92803" lon="4.73643">
        <ele>174.5</ele>
        <time>2015-07-17T08:05:18.96Z</time>
      </trkpt>
      <trkpt lat="45.92813" lon="4.73633">
        <ele>175</ele>
        <time>2015-07-17T08:05:21.922Z</time>
      </trkpt>
      <trkpt lat="45.92818" lon="4.73624">
        <ele>175.399993896</ele>
        <time>2015-07-17T08:05:23.921Z</time>
      </trkpt>
      <trkpt lat="45.92817" lon="4.7358">
        <ele>176.199996948</ele>
        <time>2015-07-17T08:05:29.926Z</time>
      </trkpt>
      <trkpt lat="45.92828" lon="4.7346">
        <ele>176.100006104</ele>
        <time>2015-07-17T08:05:44.92Z</time>
      </trkpt>
      <trkpt lat="45.92863" lon="4.73192">
        <ele>178.899993896</ele>
        <time>2015-07-17T08:06:14.92Z</time>
      </trkpt>
      <trkpt lat="45.92874" lon="4.73119">
        <ele>178.600006104</ele>
        <time>2015-07-17T08:06:22.919Z</time>
      </trkpt>
      <trkpt lat="45.92882" lon="4.73093">
        <ele>178.600006104</ele>
        <time>2015-07-17T08:06:25.923Z</time>
      </trkpt>
      <trkpt lat="45.92895" lon="4.73062">
        <ele>179.300003052</ele>
        <time>2015-07-17T08:06:29.939Z</time>
      </trkpt>
      <trkpt lat="45.92912" lon="4.73037">
        <ele>180.100006104</ele>
        <time>2015-07-17T08:06:33.922Z</time>
      </trkpt>
      <trkpt lat="45.92936" lon="4.73009">
        <ele>180.199996948</ele>
        <time>2015-07-17T08:06:38.957Z</time>
      </trkpt>
      <trkpt lat="45.92948" lon="4.72991">
        <ele>181</ele>
        <time>2015-07-17T08:06:41.922Z</time>
      </trkpt>
      <trkpt lat="45.93065" lon="4.72855">
        <ele>179.100006104</ele>
        <time>2015-07-17T08:07:04.971Z</time>
      </trkpt>
      <trkpt lat="45.93078" lon="4.72835">
        <ele>179.300003052</ele>
        <time>2015-07-17T08:07:07.923Z</time>
      </trkpt>
      <trkpt lat="45.93089" lon="4.72824">
        <ele>179.5</ele>
        <time>2015-07-17T08:07:09.924Z</time>
      </trkpt>
      <trkpt lat="45.931" lon="4.72819">
        <ele>179.5</ele>
        <time>2015-07-17T08:07:11.941Z</time>
      </trkpt>
      <trkpt lat="45.93101" lon="4.72809">
        <ele>179.300003052</ele>
        <time>2015-07-17T08:07:12.921Z</time>
      </trkpt>
      <trkpt lat="45.93387" lon="4.72477">
        <ele>178</ele>
        <time>2015-07-17T08:08:05.924Z</time>
      </trkpt>
      <trkpt lat="45.93395" lon="4.72463">
        <ele>177.899993896</ele>
        <time>2015-07-17T08:08:07.921Z</time>
      </trkpt>
      <trkpt lat="45.93401" lon="4.72443">
        <ele>176.800003052</ele>
        <time>2015-07-17T08:08:11.924Z</time>
      </trkpt>
      <trkpt lat="45.93414" lon="4.72421">
        <ele>176.600006104</ele>
        <time>2015-07-17T08:08:16.919Z</time>
      </trkpt>
      <trkpt lat="45.9345" lon="4.72399">
        <ele>177</ele>
        <time>2015-07-17T08:08:23.924Z</time>
      </trkpt>
      <trkpt lat="45.9347" lon="4.72377">
        <ele>177.399993896</ele>
        <time>2015-07-17T08:08:27.921Z</time>
      </trkpt>
      <trkpt lat="45.9352" lon="4.72303">
        <ele>178.100006104</ele>
        <time>2015-07-17T08:08:39.921Z</time>
      </trkpt>
      <trkpt lat="45.93553" lon="4.72228">
        <ele>181.300003052</ele>
        <time>2015-07-17T08:08:51.918Z</time>
      </trkpt>
      <trkpt lat="45.93568" lon="4.7223">
        <ele>182</ele>
        <time>2015-07-17T08:08:54.919Z</time>
      </trkpt>
      <trkpt lat="45.936" lon="4.72263">
        <ele>184.100006104</ele>
        <time>2015-07-17T08:09:02.923Z</time>
      </trkpt>
      <trkpt lat="45.93658" lon="4.72309">
        <ele>186.899993896</ele>
        <time>2015-07-17T08:09:14.919Z</time>
      </trkpt>
      <trkpt lat="45.93692" lon="4.72351">
        <ele>187.600006104</ele>
        <time>2015-07-17T08:09:21.92Z</time>
      </trkpt>
      <trkpt lat="45.93766" lon="4.72426">
        <ele>186.399993896</ele>
        <time>2015-07-17T08:09:35.94Z</time>
      </trkpt>
      <trkpt lat="45.93798" lon="4.72452">
        <ele>186.899993896</ele>
        <time>2015-07-17T08:09:41.924Z</time>
      </trkpt>
      <trkpt lat="45.93816" lon="4.72473">
        <ele>187.800003052</ele>
        <time>2015-07-17T08:09:44.921Z</time>
      </trkpt>
      <trkpt lat="45.93864" lon="4.72515">
        <ele>189.300003052</ele>
        <time>2015-07-17T08:09:53.924Z</time>
      </trkpt>
      <trkpt lat="45.93877" lon="4.7252">
        <ele>189.300003052</ele>
        <time>2015-07-17T08:09:55.915Z</time>
      </trkpt>
      <trkpt lat="45.93887" lon="4.72515">
        <ele>189.399993896</ele>
        <time>2015-07-17T08:09:57.92Z</time>
      </trkpt>
      <trkpt lat="45.93893" lon="4.72503">
        <ele>189</ele>
        <time>2015-07-17T08:09:59.922Z</time>
      </trkpt>
      <trkpt lat="45.94005" lon="4.72366">
        <ele>178.100006104</ele>
        <time>2015-07-17T08:10:21.918Z</time>
      </trkpt>
      <trkpt lat="45.94055" lon="4.72299">
        <ele>175.899993896</ele>
        <time>2015-07-17T08:10:31.918Z</time>
      </trkpt>
      <trkpt lat="45.94075" lon="4.72278">
        <ele>175.600006104</ele>
        <time>2015-07-17T08:10:35.921Z</time>
      </trkpt>
      <trkpt lat="45.94086" lon="4.72271">
        <ele>175.199996948</ele>
        <time>2015-07-17T08:10:37.919Z</time>
      </trkpt>
      <trkpt lat="45.94099" lon="4.72269">
        <ele>175.100006104</ele>
        <time>2015-07-17T08:10:39.918Z</time>
      </trkpt>
      <trkpt lat="45.94111" lon="4.72272">
        <ele>175</ele>
        <time>2015-07-17T08:10:41.921Z</time>
      </trkpt>
      <trkpt lat="45.9415" lon="4.72291">
        <ele>174</ele>
        <time>2015-07-17T08:10:48.918Z</time>
      </trkpt>
      <trkpt lat="45.94187" lon="4.72296">
        <ele>174.100006104</ele>
        <time>2015-07-17T08:10:54.943Z</time>
      </trkpt>
      <trkpt lat="45.94215" lon="4.72295">
        <ele>175.100006104</ele>
        <time>2015-07-17T08:10:59.921Z</time>
      </trkpt>
      <trkpt lat="45.94239" lon="4.7229">
        <ele>176.399993896</ele>
        <time>2015-07-17T08:11:04.922Z</time>
      </trkpt>
      <trkpt lat="45.94259" lon="4.7228">
        <ele>177.100006104</ele>
        <time>2015-07-17T08:11:08.919Z</time>
      </trkpt>
      <trkpt lat="45.94273" lon="4.72279">
        <ele>177</ele>
        <time>2015-07-17T08:11:11.923Z</time>
      </trkpt>
      <trkpt lat="45.94279" lon="4.72287">
        <ele>177.199996948</ele>
        <time>2015-07-17T08:11:13.919Z</time>
      </trkpt>
      <trkpt lat="45.94317" lon="4.72378">
        <ele>179.5</ele>
        <time>2015-07-17T08:11:26.92Z</time>
      </trkpt>
      <trkpt lat="45.94357" lon="4.72462">
        <ele>180.899993896</ele>
        <time>2015-07-17T08:11:38.918Z</time>
      </trkpt>
      <trkpt lat="45.94372" lon="4.72501">
        <ele>181.800003052</ele>
        <time>2015-07-17T08:11:43.921Z</time>
      </trkpt>
      <trkpt lat="45.94386" lon="4.72553">
        <ele>182.100006104</ele>
        <time>2015-07-17T08:11:49.921Z</time>
      </trkpt>
      <trkpt lat="45.94408" lon="4.72706">
        <ele>181.899993896</ele>
        <time>2015-07-17T08:12:07.919Z</time>
      </trkpt>
      <trkpt lat="45.94416" lon="4.72771">
        <ele>182.199996948</ele>
        <time>2015-07-17T08:12:15.959Z</time>
      </trkpt>
      <trkpt lat="45.94482" lon="4.73248">
        <ele>180.899993896</ele>
        <time>2015-07-17T08:13:12.917Z</time>
      </trkpt>
      <trkpt lat="45.94497" lon="4.73408">
        <ele>185.5</ele>
        <time>2015-07-17T08:13:34.94Z</time>
      </trkpt>
      <trkpt lat="45.94499" lon="4.7349">
        <ele>189</ele>
        <time>2015-07-17T08:13:46.917Z</time>
      </trkpt>
      <trkpt lat="45.94492" lon="4.73624">
        <ele>191.100006104</ele>
        <time>2015-07-17T08:14:05.922Z</time>
      </trkpt>
      <trkpt lat="45.94477" lon="4.73733">
        <ele>191.600006104</ele>
        <time>2015-07-17T08:14:19.921Z</time>
      </trkpt>
      <trkpt lat="45.94474" lon="4.73767">
        <ele>191.899993896</ele>
        <time>2015-07-17T08:14:24.937Z</time>
      </trkpt>
      <trkpt lat="45.94479" lon="4.73779">
        <ele>190.699996948</ele>
        <time>2015-07-17T08:14:26.919Z</time>
      </trkpt>
      <trkpt lat="45.94517" lon="4.7381">
        <ele>188.5</ele>
        <time>2015-07-17T08:14:34.918Z</time>
      </trkpt>
      <trkpt lat="45.94597" lon="4.73888">
        <ele>192.199996948</ele>
        <time>2015-07-17T08:14:52.919Z</time>
      </trkpt>
      <trkpt lat="45.94665" lon="4.73974">
        <ele>193.300003052</ele>
        <time>2015-07-17T08:15:10.917Z</time>
      </trkpt>
      <trkpt lat="45.94709" lon="4.74036">
        <ele>195.5</ele>
        <time>2015-07-17T08:15:22.917Z</time>
      </trkpt>
      <trkpt lat="45.94743" lon="4.74081">
        <ele>193</ele>
        <time>2015-07-17T08:15:31.919Z</time>
      </trkpt>
      <trkpt lat="45.948" lon="4.74162">
        <ele>191.300003052</ele>
        <time>2015-07-17T08:15:45.92Z</time>
      </trkpt>
      <trkpt lat="45.94856" lon="4.74264">
        <ele>194.600006104</ele>
        <time>2015-07-17T08:16:00.934Z</time>
      </trkpt>
      <trkpt lat="45.9494" lon="4.74436">
        <ele>194.300003052</ele>
        <time>2015-07-17T08:16:26.919Z</time>
      </trkpt>
      <trkpt lat="45.95065" lon="4.74669">
        <ele>198</ele>
        <time>2015-07-17T08:17:02.917Z</time>
      </trkpt>
      <trkpt lat="45.9513" lon="4.74774">
        <ele>201.800003052</ele>
        <time>2015-07-17T08:17:19.918Z</time>
      </trkpt>
      <trkpt lat="45.9514" lon="4.74794">
        <ele>202</ele>
        <time>2015-07-17T08:17:22.918Z</time>
      </trkpt>
      <trkpt lat="45.95182" lon="4.74856">
        <ele>200</ele>
        <time>2015-07-17T08:17:33.918Z</time>
      </trkpt>
      <trkpt lat="45.95258" lon="4.74982">
        <ele>198.699996948</ele>
        <time>2015-07-17T08:17:54.921Z</time>
      </trkpt>
      <trkpt lat="45.95373" lon="4.75158">
        <ele>196.600006104</ele>
        <time>2015-07-17T08:18:21.916Z</time>
      </trkpt>
      <trkpt lat="45.9546" lon="4.75314">
        <ele>194.600006104</ele>
        <time>2015-07-17T08:18:43.918Z</time>
      </trkpt>
      <trkpt lat="45.955" lon="4.75396">
        <ele>194.699996948</ele>
        <time>2015-07-17T08:18:53.922Z</time>
      </trkpt>
      <trkpt lat="45.9551" lon="4.75445">
        <ele>194.199996948</ele>
        <time>2015-07-17T08:18:59.922Z</time>
      </trkpt>
      <trkpt lat="45.95505" lon="4.75474">
        <ele>193.899993896</ele>
        <time>2015-07-17T08:19:03.919Z</time>
      </trkpt>
      <trkpt lat="45.95507" lon="4.75488">
        <ele>194.800003052</ele>
        <time>2015-07-17T08:19:05.922Z</time>
      </trkpt>
      <trkpt lat="45.95529" lon="4.75505">
        <ele>194.300003052</ele>
        <time>2015-07-17T08:19:09.934Z</time>
      </trkpt>
      <trkpt lat="45.95581" lon="4.75557">
        <ele>195.600006104</ele>
        <time>2015-07-17T08:19:19.982Z</time>
      </trkpt>
      <trkpt lat="45.95589" lon="4.75569">
        <ele>195.699996948</ele>
        <time>2015-07-17T08:19:21.923Z</time>
      </trkpt>
      <trkpt lat="45.9561" lon="4.75627">
        <ele>195.100006104</ele>
        <time>2015-07-17T08:19:29.923Z</time>
      </trkpt>
      <trkpt lat="45.95617" lon="4.75659">
        <ele>195</ele>
        <time>2015-07-17T08:19:33.96Z</time>
      </trkpt>
      <trkpt lat="45.95634" lon="4.75779">
        <ele>194.899993896</ele>
        <time>2015-07-17T08:19:47.922Z</time>
      </trkpt>
      <trkpt lat="45.95648" lon="4.75846">
        <ele>193</ele>
        <time>2015-07-17T08:19:55.919Z</time>
      </trkpt>
      <trkpt lat="45.95655" lon="4.75871">
        <ele>192.199996948</ele>
        <time>2015-07-17T08:19:58.915Z</time>
      </trkpt>
      <trkpt lat="45.9568" lon="4.75936">
        <ele>191.300003052</ele>
        <time>2015-07-17T08:20:06.92Z</time>
      </trkpt>
      <trkpt lat="45.95747" lon="4.76076">
        <ele>190.100006104</ele>
        <time>2015-07-17T08:20:25.919Z</time>
      </trkpt>
      <trkpt lat="45.95756" lon="4.76108">
        <ele>190.399993896</ele>
        <time>2015-07-17T08:20:29.927Z</time>
      </trkpt>
      <trkpt lat="45.95764" lon="4.76197">
        <ele>189.399993896</ele>
        <time>2015-07-17T08:20:39.918Z</time>
      </trkpt>
      <trkpt lat="45.95775" lon="4.76394">
        <ele>188.5</ele>
        <time>2015-07-17T08:21:03.92Z</time>
      </trkpt>
      <trkpt lat="45.95827" lon="4.76783">
        <ele>193.699996948</ele>
        <time>2015-07-17T08:21:53.966Z</time>
      </trkpt>
      <trkpt lat="45.95828" lon="4.76813">
        <ele>193.100006104</ele>
        <time>2015-07-17T08:21:57.921Z</time>
      </trkpt>
      <trkpt lat="45.95804" lon="4.76962">
        <ele>190.699996948</ele>
        <time>2015-07-17T08:22:15.918Z</time>
      </trkpt>
      <trkpt lat="45.95802" lon="4.76985">
        <ele>190.399993896</ele>
        <time>2015-07-17T08:22:18.919Z</time>
      </trkpt>
      <trkpt lat="45.95805" lon="4.77016">
        <ele>190.899993896</ele>
        <time>2015-07-17T08:22:22.92Z</time>
      </trkpt>
      <trkpt lat="45.95849" lon="4.77143">
        <ele>193.5</ele>
        <time>2015-07-17T08:22:40.938Z</time>
      </trkpt>
      <trkpt lat="45.95865" lon="4.77205">
        <ele>194.199996948</ele>
        <time>2015-07-17T08:22:49.925Z</time>
      </trkpt>
      <trkpt lat="45.95881" lon="4.7729">
        <ele>195.699996948</ele>
        <time>2015-07-17T08:23:00.92Z</time>
      </trkpt>
      <trkpt lat="45.95896" lon="4.77345">
        <ele>197.5</ele>
        <time>2015-07-17T08:23:08.921Z</time>
      </trkpt>
      <trkpt lat="45.95953" lon="4.77494">
        <ele>199.899993896</ele>
        <time>2015-07-17T08:23:32.919Z</time>
      </trkpt>
      <trkpt lat="45.95975" lon="4.77545">
        <ele>202.399993896</ele>
        <time>2015-07-17T08:23:42.921Z</time>
      </trkpt>
      <trkpt lat="45.95991" lon="4.77587">
        <ele>201.399993896</ele>
        <time>2015-07-17T08:23:49.922Z</time>
      </trkpt>
      <trkpt lat="45.95997" lon="4.77598">
        <ele>201.5</ele>
        <time>2015-07-17T08:23:51.918Z</time>
      </trkpt>
      <trkpt lat="45.96036" lon="4.77642">
        <ele>201.899993896</ele>
        <time>2015-07-17T08:24:01.96Z</time>
      </trkpt>
      <trkpt lat="45.96074" lon="4.77695">
        <ele>201.800003052</ele>
        <time>2015-07-17T08:24:12.916Z</time>
      </trkpt>
      <trkpt lat="45.96151" lon="4.77818">
        <ele>202.699996948</ele>
        <time>2015-07-17T08:24:35.919Z</time>
      </trkpt>
      <trkpt lat="45.96166" lon="4.77847">
        <ele>203.399993896</ele>
        <time>2015-07-17T08:24:40.921Z</time>
      </trkpt>
      <trkpt lat="45.96219" lon="4.77933">
        <ele>203.5</ele>
        <time>2015-07-17T08:24:55.935Z</time>
      </trkpt>
      <trkpt lat="45.96251" lon="4.77967">
        <ele>202.699996948</ele>
        <time>2015-07-17T08:25:02.958Z</time>
      </trkpt>
      <trkpt lat="45.96279" lon="4.77988">
        <ele>202.600006104</ele>
        <time>2015-07-17T08:25:07.921Z</time>
      </trkpt>
      <trkpt lat="45.96298" lon="4.78007">
        <ele>202.899993896</ele>
        <time>2015-07-17T08:25:11.921Z</time>
      </trkpt>
      <trkpt lat="45.96358" lon="4.78084">
        <ele>203.300003052</ele>
        <time>2015-07-17T08:25:25.918Z</time>
      </trkpt>
      <trkpt lat="45.9638" lon="4.78105">
        <ele>203.5</ele>
        <time>2015-07-17T08:25:30.915Z</time>
      </trkpt>
      <trkpt lat="45.964" lon="4.78118">
        <ele>203.800003052</ele>
        <time>2015-07-17T08:25:34.918Z</time>
      </trkpt>
      <trkpt lat="45.96452" lon="4.7817">
        <ele>203.100006104</ele>
        <time>2015-07-17T08:25:46.915Z</time>
      </trkpt>
      <trkpt lat="45.96495" lon="4.78198">
        <ele>203.399993896</ele>
        <time>2015-07-17T08:25:55.927Z</time>
      </trkpt>
      <trkpt lat="45.96537" lon="4.7827">
        <ele>203.699996948</ele>
        <time>2015-07-17T08:26:06.917Z</time>
      </trkpt>
      <trkpt lat="45.96591" lon="4.78332">
        <ele>204.899993896</ele>
        <time>2015-07-17T08:26:18.917Z</time>
      </trkpt>
      <trkpt lat="45.96625" lon="4.7836">
        <ele>204.899993896</ele>
        <time>2015-07-17T08:26:25.921Z</time>
      </trkpt>
      <trkpt lat="45.96695" lon="4.7843">
        <ele>204.5</ele>
        <time>2015-07-17T08:26:40.92Z</time>
      </trkpt>
      <trkpt lat="45.96714" lon="4.78458">
        <ele>204.100006104</ele>
        <time>2015-07-17T08:26:45.918Z</time>
      </trkpt>
      <trkpt lat="45.96749" lon="4.78486">
        <ele>204.399993896</ele>
        <time>2015-07-17T08:26:52.92Z</time>
      </trkpt>
      <trkpt lat="45.96776" lon="4.78517">
        <ele>204.5</ele>
        <time>2015-07-17T08:26:58.939Z</time>
      </trkpt>
      <trkpt lat="45.96819" lon="4.78585">
        <ele>205.600006104</ele>
        <time>2015-07-17T08:27:10.905Z</time>
      </trkpt>
      <trkpt lat="45.96837" lon="4.78637">
        <ele>205.800003052</ele>
        <time>2015-07-17T08:27:18.915Z</time>
      </trkpt>
      <trkpt lat="45.9689" lon="4.7875">
        <ele>206.300003052</ele>
        <time>2015-07-17T08:27:35.918Z</time>
      </trkpt>
      <trkpt lat="45.96935" lon="4.7883">
        <ele>206.399993896</ele>
        <time>2015-07-17T08:27:48.911Z</time>
      </trkpt>
      <trkpt lat="45.96997" lon="4.78903">
        <ele>207.199996948</ele>
        <time>2015-07-17T08:28:03.912Z</time>
      </trkpt>
      <trkpt lat="45.97036" lon="4.7896">
        <ele>208.100006104</ele>
        <time>2015-07-17T08:28:14.917Z</time>
      </trkpt>
      <trkpt lat="45.97052" lon="4.78995">
        <ele>208.100006104</ele>
        <time>2015-07-17T08:28:20.932Z</time>
      </trkpt>
      <trkpt lat="45.97063" lon="4.79029">
        <ele>208.800003052</ele>
        <time>2015-07-17T08:28:25.989Z</time>
      </trkpt>
      <trkpt lat="45.97079" lon="4.79103">
        <ele>208.600006104</ele>
        <time>2015-07-17T08:28:35.918Z</time>
      </trkpt>
      <trkpt lat="45.97084" lon="4.79118">
        <ele>208</ele>
        <time>2015-07-17T08:28:37.916Z</time>
      </trkpt>
      <trkpt lat="45.97107" lon="4.79161">
        <ele>207.899993896</ele>
        <time>2015-07-17T08:28:44.92Z</time>
      </trkpt>
      <trkpt lat="45.9715" lon="4.7926">
        <ele>206.899993896</ele>
        <time>2015-07-17T08:28:59.947Z</time>
      </trkpt>
      <trkpt lat="45.97169" lon="4.79315">
        <ele>207.600006104</ele>
        <time>2015-07-17T08:29:07.915Z</time>
      </trkpt>
      <trkpt lat="45.97183" lon="4.79339">
        <ele>207.300003052</ele>
        <time>2015-07-17T08:29:11.92Z</time>
      </trkpt>
      <trkpt lat="45.97211" lon="4.79404">
        <ele>207.300003052</ele>
        <time>2015-07-17T08:29:21.918Z</time>
      </trkpt>
      <trkpt lat="45.97233" lon="4.79463">
        <ele>208.699996948</ele>
        <time>2015-07-17T08:29:31.915Z</time>
      </trkpt>
      <trkpt lat="45.97252" lon="4.79549">
        <ele>213.199996948</ele>
        <time>2015-07-17T08:29:45.929Z</time>
      </trkpt>
      <trkpt lat="45.97254" lon="4.79567">
        <ele>214.300003052</ele>
        <time>2015-07-17T08:29:48.917Z</time>
      </trkpt>
      <trkpt lat="45.97251" lon="4.79594">
        <ele>214.199996948</ele>
        <time>2015-07-17T08:29:52.917Z</time>
      </trkpt>
      <trkpt lat="45.97254" lon="4.79647">
        <ele>214.699996948</ele>
        <time>2015-07-17T08:30:00.917Z</time>
      </trkpt>
      <trkpt lat="45.97256" lon="4.79652">
        <ele>215.600006104</ele>
        <time>2015-07-17T08:30:01.919Z</time>
      </trkpt>
      <trkpt lat="45.9724" lon="4.79746">
        <ele>216.600006104</ele>
        <time>2015-07-17T08:30:14.917Z</time>
      </trkpt>
      <trkpt lat="45.97241" lon="4.79769">
        <ele>216.5</ele>
        <time>2015-07-17T08:30:17.918Z</time>
      </trkpt>
      <trkpt lat="45.97237" lon="4.79806">
        <ele>214.899993896</ele>
        <time>2015-07-17T08:30:22.971Z</time>
      </trkpt>
      <trkpt lat="45.97239" lon="4.79855">
        <ele>213.699996948</ele>
        <time>2015-07-17T08:30:29.932Z</time>
      </trkpt>
      <trkpt lat="45.9725" lon="4.79914">
        <ele>216.399993896</ele>
        <time>2015-07-17T08:30:41.919Z</time>
      </trkpt>
      <trkpt lat="45.97253" lon="4.79917">
        <ele>216.399993896</ele>
        <time>2015-07-17T08:30:42.919Z</time>
      </trkpt>
      <trkpt lat="45.97275" lon="4.7992">
        <ele>217.300003052</ele>
        <time>2015-07-17T08:30:48.917Z</time>
      </trkpt>
      <trkpt lat="45.97321" lon="4.79916">
        <ele>219.600006104</ele>
        <time>2015-07-17T08:30:58.94Z</time>
      </trkpt>
      <trkpt lat="45.97377" lon="4.79901">
        <ele>223</ele>
        <time>2015-07-17T08:31:11.917Z</time>
      </trkpt>
      <trkpt lat="45.9748" lon="4.79895">
        <ele>223.600006104</ele>
        <time>2015-07-17T08:31:36.919Z</time>
      </trkpt>
      <trkpt lat="45.97552" lon="4.79883">
        <ele>229.300003052</ele>
        <time>2015-07-17T08:31:55.916Z</time>
      </trkpt>
      <trkpt lat="45.97652" lon="4.79846">
        <ele>230</ele>
        <time>2015-07-17T08:32:20.964Z</time>
      </trkpt>
      <trkpt lat="45.97693" lon="4.79834">
        <ele>229.300003052</ele>
        <time>2015-07-17T08:32:29.906Z</time>
      </trkpt>
      <trkpt lat="45.97813" lon="4.79815">
        <ele>227.5</ele>
        <time>2015-07-17T08:32:50.919Z</time>
      </trkpt>
      <trkpt lat="45.97945" lon="4.79789">
        <ele>230.899993896</ele>
        <time>2015-07-17T08:33:12.932Z</time>
      </trkpt>
      <trkpt lat="45.97996" lon="4.79784">
        <ele>230.300003052</ele>
        <time>2015-07-17T08:33:20.917Z</time>
      </trkpt>
      <trkpt lat="45.98153" lon="4.7976">
        <ele>232.800003052</ele>
        <time>2015-07-17T08:33:47.918Z</time>
      </trkpt>
      <trkpt lat="45.98163" lon="4.79764">
        <ele>232</ele>
        <time>2015-07-17T08:33:49.916Z</time>
      </trkpt>
      <trkpt lat="45.9817" lon="4.79773">
        <ele>231.399993896</ele>
        <time>2015-07-17T08:33:51.914Z</time>
      </trkpt>
      <trkpt lat="45.98242" lon="4.79968">
        <ele>226.600006104</ele>
        <time>2015-07-17T08:34:16.931Z</time>
      </trkpt>
      <trkpt lat="45.98285" lon="4.80099">
        <ele>225.199996948</ele>
        <time>2015-07-17T08:34:33.916Z</time>
      </trkpt>
      <trkpt lat="45.98326" lon="4.80214">
        <ele>225.699996948</ele>
        <time>2015-07-17T08:34:50.916Z</time>
      </trkpt>
      <trkpt lat="45.98328" lon="4.80228">
        <ele>225.699996948</ele>
        <time>2015-07-17T08:34:52.916Z</time>
      </trkpt>
      <trkpt lat="45.98318" lon="4.80255">
        <ele>226</ele>
        <time>2015-07-17T08:34:56.916Z</time>
      </trkpt>
      <trkpt lat="45.9831" lon="4.80308">
        <ele>226.300003052</ele>
        <time>2015-07-17T08:35:02.919Z</time>
      </trkpt>
      <trkpt lat="45.98265" lon="4.80509">
        <ele>223.100006104</ele>
        <time>2015-07-17T08:35:23.919Z</time>
      </trkpt>
      <trkpt lat="45.98259" lon="4.80543">
        <ele>222.5</ele>
        <time>2015-07-17T08:35:27.914Z</time>
      </trkpt>
      <trkpt lat="45.98225" lon="4.80657">
        <ele>219.899993896</ele>
        <time>2015-07-17T08:35:41.918Z</time>
      </trkpt>
      <trkpt lat="45.98217" lon="4.80671">
        <ele>219.699996948</ele>
        <time>2015-07-17T08:35:44.917Z</time>
      </trkpt>
      <trkpt lat="45.98185" lon="4.8069">
        <ele>222.800003052</ele>
        <time>2015-07-17T08:35:52.932Z</time>
      </trkpt>
      <trkpt lat="45.98176" lon="4.80692">
        <ele>223.5</ele>
        <time>2015-07-17T08:35:54.896Z</time>
      </trkpt>
      <trkpt lat="45.98172" lon="4.80689">
        <ele>223.300003052</ele>
        <time>2015-07-17T08:35:55.915Z</time>
      </trkpt>
      <trkpt lat="45.98136" lon="4.80688">
        <ele>225.800003052</ele>
        <time>2015-07-17T08:36:03.914Z</time>
      </trkpt>
      <trkpt lat="45.98045" lon="4.80698">
        <ele>228.100006104</ele>
        <time>2015-07-17T08:36:28.917Z</time>
      </trkpt>
      <trkpt lat="45.98036" lon="4.80707">
        <ele>228.199996948</ele>
        <time>2015-07-17T08:36:32.001Z</time>
      </trkpt>
      <trkpt lat="45.98032" lon="4.80717">
        <ele>228.699996948</ele>
        <time>2015-07-17T08:36:34.915Z</time>
      </trkpt>
      <trkpt lat="45.98046" lon="4.80775">
        <ele>233.600006104</ele>
        <time>2015-07-17T08:36:52.915Z</time>
      </trkpt>
      <trkpt lat="45.98058" lon="4.80837">
        <ele>234.899993896</ele>
        <time>2015-07-17T08:37:08.918Z</time>
      </trkpt>
      <trkpt lat="45.98078" lon="4.80923">
        <ele>241</ele>
        <time>2015-07-17T08:37:34.915Z</time>
      </trkpt>
      <trkpt lat="45.98097" lon="4.80988">
        <ele>245.899993896</ele>
        <time>2015-07-17T08:37:55.921Z</time>
      </trkpt>
      <trkpt lat="45.98166" lon="4.81183">
        <ele>253.399993896</ele>
        <time>2015-07-17T08:38:32.927Z</time>
      </trkpt>
      <trkpt lat="45.98172" lon="4.81236">
        <ele>255.699996948</ele>
        <time>2015-07-17T08:38:42.919Z</time>
      </trkpt>
      <trkpt lat="45.98181" lon="4.81276">
        <ele>257.799987793</ele>
        <time>2015-07-17T08:38:50.914Z</time>
      </trkpt>
      <trkpt lat="45.982" lon="4.81384">
        <ele>257.5</ele>
        <time>2015-07-17T08:39:06.914Z</time>
      </trkpt>
      <trkpt lat="45.98218" lon="4.81447">
        <ele>257.100006104</ele>
        <time>2015-07-17T08:39:16.919Z</time>
      </trkpt>
      <trkpt lat="45.98277" lon="4.8161">
        <ele>250.100006104</ele>
        <time>2015-07-17T08:39:41.917Z</time>
      </trkpt>
      <trkpt lat="45.983" lon="4.81643">
        <ele>249.300003052</ele>
        <time>2015-07-17T08:39:47.917Z</time>
      </trkpt>
      <trkpt lat="45.9833" lon="4.81668">
        <ele>248.600006104</ele>
        <time>2015-07-17T08:39:53.918Z</time>
      </trkpt>
      <trkpt lat="45.98348" lon="4.81675">
        <ele>248.100006104</ele>
        <time>2015-07-17T08:39:56.93Z</time>
      </trkpt>
      <trkpt lat="45.98362" lon="4.81675">
        <ele>248.199996948</ele>
        <time>2015-07-17T08:39:58.918Z</time>
      </trkpt>
      <trkpt lat="45.98409" lon="4.81665">
        <ele>248</ele>
        <time>2015-07-17T08:40:05.92Z</time>
      </trkpt>
      <trkpt lat="45.98427" lon="4.81668">
        <ele>247.699996948</ele>
        <time>2015-07-17T08:40:08.914Z</time>
      </trkpt>
      <trkpt lat="45.98438" lon="4.81675">
        <ele>247.699996948</ele>
        <time>2015-07-17T08:40:10.916Z</time>
      </trkpt>
      <trkpt lat="45.98465" lon="4.81717">
        <ele>245.899993896</ele>
        <time>2015-07-17T08:40:16.914Z</time>
      </trkpt>
      <trkpt lat="45.98505" lon="4.81759">
        <ele>242.800003052</ele>
        <time>2015-07-17T08:40:22.916Z</time>
      </trkpt>
      <trkpt lat="45.98536" lon="4.81799">
        <ele>241.800003052</ele>
        <time>2015-07-17T08:40:27.914Z</time>
      </trkpt>
      <trkpt lat="45.98549" lon="4.81807">
        <ele>241.199996948</ele>
        <time>2015-07-17T08:40:29.919Z</time>
      </trkpt>
      <trkpt lat="45.98562" lon="4.818">
        <ele>240.5</ele>
        <time>2015-07-17T08:40:31.917Z</time>
      </trkpt>
      <trkpt lat="45.9858" lon="4.81774">
        <ele>239.600006104</ele>
        <time>2015-07-17T08:40:35.917Z</time>
      </trkpt>
      <trkpt lat="45.98602" lon="4.81758">
        <ele>238.699996948</ele>
        <time>2015-07-17T08:40:39.916Z</time>
      </trkpt>
      <trkpt lat="45.98671" lon="4.81739">
        <ele>239.100006104</ele>
        <time>2015-07-17T08:40:51.914Z</time>
      </trkpt>
      <trkpt lat="45.98723" lon="4.81731">
        <ele>244.199996948</ele>
        <time>2015-07-17T08:41:01.915Z</time>
      </trkpt>
      <trkpt lat="45.98733" lon="4.8174">
        <ele>244.100006104</ele>
        <time>2015-07-17T08:41:03.973Z</time>
      </trkpt>
      <trkpt lat="45.98799" lon="4.81879">
        <ele>242.5</ele>
        <time>2015-07-17T08:41:22.914Z</time>
      </trkpt>
      <trkpt lat="45.9881" lon="4.81922">
        <ele>240</ele>
        <time>2015-07-17T08:41:27.932Z</time>
      </trkpt>
      <trkpt lat="45.98818" lon="4.81966">
        <ele>238.199996948</ele>
        <time>2015-07-17T08:41:32.914Z</time>
      </trkpt>
      <trkpt lat="45.98827" lon="4.82049">
        <ele>237.300003052</ele>
        <time>2015-07-17T08:41:41.921Z</time>
      </trkpt>
      <trkpt lat="45.98848" lon="4.82159">
        <ele>236.399993896</ele>
        <time>2015-07-17T08:41:54.918Z</time>
      </trkpt>
      <trkpt lat="45.98881" lon="4.82246">
        <ele>237.899993896</ele>
        <time>2015-07-17T08:42:06.915Z</time>
      </trkpt>
      <trkpt lat="45.98901" lon="4.8228">
        <ele>238.300003052</ele>
        <time>2015-07-17T08:42:11.917Z</time>
      </trkpt>
      <trkpt lat="45.98931" lon="4.82312">
        <ele>239.600006104</ele>
        <time>2015-07-17T08:42:17.919Z</time>
      </trkpt>
      <trkpt lat="45.98947" lon="4.82335">
        <ele>240.100006104</ele>
        <time>2015-07-17T08:42:21.932Z</time>
      </trkpt>
      <trkpt lat="45.9896" lon="4.82363">
        <ele>238.600006104</ele>
        <time>2015-07-17T08:42:25.915Z</time>
      </trkpt>
      <trkpt lat="45.98975" lon="4.82424">
        <ele>238.399993896</ele>
        <time>2015-07-17T08:42:32.93Z</time>
      </trkpt>
      <trkpt lat="45.98998" lon="4.82501">
        <ele>238.300003052</ele>
        <time>2015-07-17T08:42:42.918Z</time>
      </trkpt>
      <trkpt lat="45.99012" lon="4.82528">
        <ele>238.199996948</ele>
        <time>2015-07-17T08:42:46.907Z</time>
      </trkpt>
      <trkpt lat="45.99026" lon="4.82547">
        <ele>237.899993896</ele>
        <time>2015-07-17T08:42:49.961Z</time>
      </trkpt>
      <trkpt lat="45.99042" lon="4.8256">
        <ele>237.399993896</ele>
        <time>2015-07-17T08:42:52.913Z</time>
      </trkpt>
      <trkpt lat="45.9907" lon="4.82572">
        <ele>237.600006104</ele>
        <time>2015-07-17T08:42:57.953Z</time>
      </trkpt>
      <trkpt lat="45.99076" lon="4.82582">
        <ele>237.699996948</ele>
        <time>2015-07-17T08:42:59.916Z</time>
      </trkpt>
      <trkpt lat="45.99074" lon="4.82591">
        <ele>238.199996948</ele>
        <time>2015-07-17T08:43:01.917Z</time>
      </trkpt>
      <trkpt lat="45.99026" lon="4.82697">
        <ele>242.199996948</ele>
        <time>2015-07-17T08:43:25.914Z</time>
      </trkpt>
      <trkpt lat="45.98972" lon="4.82825">
        <ele>249</ele>
        <time>2015-07-17T08:44:00.913Z</time>
      </trkpt>
      <trkpt lat="45.98964" lon="4.82852">
        <ele>249.800003052</ele>
        <time>2015-07-17T08:44:08.918Z</time>
      </trkpt>
      <trkpt lat="45.98945" lon="4.82886">
        <ele>253.600006104</ele>
        <time>2015-07-17T08:44:21.915Z</time>
      </trkpt>
      <trkpt lat="45.98932" lon="4.82923">
        <ele>253.600006104</ele>
        <time>2015-07-17T08:44:33.915Z</time>
      </trkpt>
      <trkpt lat="45.98908" lon="4.8297">
        <ele>254.899993896</ele>
        <time>2015-07-17T08:44:51.917Z</time>
      </trkpt>
      <trkpt lat="45.98892" lon="4.82986">
        <ele>256.399993896</ele>
        <time>2015-07-17T08:45:00.913Z</time>
      </trkpt>
      <trkpt lat="45.98834" lon="4.8302">
        <ele>269.700012207</ele>
        <time>2015-07-17T08:45:27.917Z</time>
      </trkpt>
      <trkpt lat="45.98795" lon="4.83048">
        <ele>270.600006104</ele>
        <time>2015-07-17T08:45:43.94Z</time>
      </trkpt>
      <trkpt lat="45.98736" lon="4.83101">
        <ele>271.600006104</ele>
        <time>2015-07-17T08:46:05.971Z</time>
      </trkpt>
      <trkpt lat="45.98635" lon="4.83185">
        <ele>271.200012207</ele>
        <time>2015-07-17T08:46:34.914Z</time>
      </trkpt>
      <trkpt lat="45.98538" lon="4.83315">
        <ele>270.899993896</ele>
        <time>2015-07-17T08:47:04.912Z</time>
      </trkpt>
      <trkpt lat="45.98408" lon="4.83497">
        <ele>267.399993896</ele>
        <time>2015-07-17T08:47:40.913Z</time>
      </trkpt>
      <trkpt lat="45.98322" lon="4.83611">
        <ele>269.200012207</ele>
        <time>2015-07-17T08:48:03.919Z</time>
      </trkpt>
      <trkpt lat="45.98308" lon="4.83633">
        <ele>269.600006104</ele>
        <time>2015-07-17T08:48:07.914Z</time>
      </trkpt>
      <trkpt lat="45.98281" lon="4.83698">
        <ele>270.799987793</ele>
        <time>2015-07-17T08:48:18.912Z</time>
      </trkpt>
      <trkpt lat="45.98221" lon="4.83877">
        <ele>270.700012207</ele>
        <time>2015-07-17T08:48:46.912Z</time>
      </trkpt>
      <trkpt lat="45.98181" lon="4.83983">
        <ele>272.5</ele>
        <time>2015-07-17T08:49:03.912Z</time>
      </trkpt>
      <trkpt lat="45.98164" lon="4.8402">
        <ele>272.700012207</ele>
        <time>2015-07-17T08:49:09.912Z</time>
      </trkpt>
      <trkpt lat="45.98136" lon="4.84063">
        <ele>272</ele>
        <time>2015-07-17T08:49:17.915Z</time>
      </trkpt>
      <trkpt lat="45.98102" lon="4.84101">
        <ele>271.899993896</ele>
        <time>2015-07-17T08:49:26.912Z</time>
      </trkpt>
      <trkpt lat="45.98039" lon="4.84163">
        <ele>271.700012207</ele>
        <time>2015-07-17T08:49:41.917Z</time>
      </trkpt>
      <trkpt lat="45.97962" lon="4.84232">
        <ele>274.600006104</ele>
        <time>2015-07-17T08:49:58.911Z</time>
      </trkpt>
      <trkpt lat="45.97933" lon="4.84262">
        <ele>274.600006104</ele>
        <time>2015-07-17T08:50:05.915Z</time>
      </trkpt>
      <trkpt lat="45.97926" lon="4.84273">
        <ele>275</ele>
        <time>2015-07-17T08:50:07.911Z</time>
      </trkpt>
      <trkpt lat="45.97923" lon="4.84286">
        <ele>275</ele>
        <time>2015-07-17T08:50:09.914Z</time>
      </trkpt>
      <trkpt lat="45.97925" lon="4.84313">
        <ele>276.100006104</ele>
        <time>2015-07-17T08:50:13.915Z</time>
      </trkpt>
      <trkpt lat="45.97939" lon="4.84389">
        <ele>276.399993896</ele>
        <time>2015-07-17T08:50:24.912Z</time>
      </trkpt>
      <trkpt lat="45.97948" lon="4.84454">
        <ele>276.899993896</ele>
        <time>2015-07-17T08:50:33.913Z</time>
      </trkpt>
      <trkpt lat="45.97989" lon="4.84696">
        <ele>272.399993896</ele>
        <time>2015-07-17T08:51:05.914Z</time>
      </trkpt>
      <trkpt lat="45.98001" lon="4.84898">
        <ele>276.700012207</ele>
        <time>2015-07-17T08:51:32.912Z</time>
      </trkpt>
      <trkpt lat="45.98014" lon="4.85005">
        <ele>276.299987793</ele>
        <time>2015-07-17T08:51:48.951Z</time>
      </trkpt>
      <trkpt lat="45.98016" lon="4.85076">
        <ele>276.5</ele>
        <time>2015-07-17T08:51:59.915Z</time>
      </trkpt>
      <trkpt lat="45.9802" lon="4.85105">
        <ele>276.399993896</ele>
        <time>2015-07-17T08:52:03.927Z</time>
      </trkpt>
      <trkpt lat="45.98029" lon="4.85141">
        <ele>276.600006104</ele>
        <time>2015-07-17T08:52:08.915Z</time>
      </trkpt>
      <trkpt lat="45.98058" lon="4.85228">
        <ele>277.399993896</ele>
        <time>2015-07-17T08:52:24.911Z</time>
      </trkpt>
      <trkpt lat="45.98105" lon="4.85322">
        <ele>278</ele>
        <time>2015-07-17T08:52:40.91Z</time>
      </trkpt>
      <trkpt lat="45.98328" lon="4.85884">
        <ele>279.899993896</ele>
        <time>2015-07-17T08:53:58.911Z</time>
      </trkpt>
      <trkpt lat="45.98358" lon="4.85951">
        <ele>281.600006104</ele>
        <time>2015-07-17T08:54:09.911Z</time>
      </trkpt>
      <trkpt lat="45.98382" lon="4.8602">
        <ele>283</ele>
        <time>2015-07-17T08:54:19.911Z</time>
      </trkpt>
      <trkpt lat="45.98383" lon="4.8603">
        <ele>282.399993896</ele>
        <time>2015-07-17T08:54:20.913Z</time>
      </trkpt>
      <trkpt lat="45.98394" lon="4.86055">
        <ele>281.399993896</ele>
        <time>2015-07-17T08:54:23.911Z</time>
      </trkpt>
      <trkpt lat="45.98411" lon="4.86119">
        <ele>281.299987793</ele>
        <time>2015-07-17T08:54:33.913Z</time>
      </trkpt>
      <trkpt lat="45.98412" lon="4.86135">
        <ele>281.700012207</ele>
        <time>2015-07-17T08:54:36.913Z</time>
      </trkpt>
      <trkpt lat="45.98437" lon="4.86292">
        <ele>280</ele>
        <time>2015-07-17T08:54:57.912Z</time>
      </trkpt>
      <trkpt lat="45.98451" lon="4.86354">
        <ele>278.399993896</ele>
        <time>2015-07-17T08:55:03.91Z</time>
      </trkpt>
      <trkpt lat="45.98457" lon="4.86373">
        <ele>278.200012207</ele>
        <time>2015-07-17T08:55:05.921Z</time>
      </trkpt>
      <trkpt lat="45.9851" lon="4.86493">
        <ele>279.399993896</ele>
        <time>2015-07-17T08:55:20.911Z</time>
      </trkpt>
      <trkpt lat="45.98541" lon="4.86553">
        <ele>281.100006104</ele>
        <time>2015-07-17T08:55:28.91Z</time>
      </trkpt>
      <trkpt lat="45.98562" lon="4.86614">
        <ele>281.799987793</ele>
        <time>2015-07-17T08:55:36.91Z</time>
      </trkpt>
      <trkpt lat="45.98564" lon="4.86648">
        <ele>282.5</ele>
        <time>2015-07-17T08:55:40.912Z</time>
      </trkpt>
      <trkpt lat="45.98563" lon="4.86689">
        <ele>283.899993896</ele>
        <time>2015-07-17T08:55:45.91Z</time>
      </trkpt>
      <trkpt lat="45.98558" lon="4.86733">
        <ele>285.399993896</ele>
        <time>2015-07-17T08:55:50.91Z</time>
      </trkpt>
      <trkpt lat="45.98568" lon="4.86782">
        <ele>286.200012207</ele>
        <time>2015-07-17T08:55:56.914Z</time>
      </trkpt>
      <trkpt lat="45.98573" lon="4.868">
        <ele>286.399993896</ele>
        <time>2015-07-17T08:55:58.912Z</time>
      </trkpt>
      <trkpt lat="45.98579" lon="4.86842">
        <ele>287.100006104</ele>
        <time>2015-07-17T08:56:03.912Z</time>
      </trkpt>
      <trkpt lat="45.98579" lon="4.86895">
        <ele>287.100006104</ele>
        <time>2015-07-17T08:56:09.91Z</time>
      </trkpt>
      <trkpt lat="45.98586" lon="4.87">
        <ele>287.200012207</ele>
        <time>2015-07-17T08:56:20.928Z</time>
      </trkpt>
      <trkpt lat="45.98593" lon="4.87046">
        <ele>288</ele>
        <time>2015-07-17T08:56:25.934Z</time>
      </trkpt>
      <trkpt lat="45.98601" lon="4.87076">
        <ele>288.299987793</ele>
        <time>2015-07-17T08:56:28.911Z</time>
      </trkpt>
      <trkpt lat="45.98604" lon="4.87115">
        <ele>287.700012207</ele>
        <time>2015-07-17T08:56:32.91Z</time>
      </trkpt>
      <trkpt lat="45.98599" lon="4.87132">
        <ele>287.799987793</ele>
        <time>2015-07-17T08:56:34.91Z</time>
      </trkpt>
      <trkpt lat="45.98602" lon="4.87173">
        <ele>288.299987793</ele>
        <time>2015-07-17T08:56:38.91Z</time>
      </trkpt>
      <trkpt lat="45.98597" lon="4.87226">
        <ele>288.600006104</ele>
        <time>2015-07-17T08:56:43.911Z</time>
      </trkpt>
      <trkpt lat="45.98592" lon="4.87251">
        <ele>288.799987793</ele>
        <time>2015-07-17T08:56:45.912Z</time>
      </trkpt>
      <trkpt lat="45.98588" lon="4.87296">
        <ele>289.200012207</ele>
        <time>2015-07-17T08:56:49.917Z</time>
      </trkpt>
      <trkpt lat="45.98589" lon="4.87318">
        <ele>289.299987793</ele>
        <time>2015-07-17T08:56:51.91Z</time>
      </trkpt>
      <trkpt lat="45.9862" lon="4.87465">
        <ele>280.899993896</ele>
        <time>2015-07-17T08:57:03.918Z</time>
      </trkpt>
      <trkpt lat="45.98628" lon="4.8752">
        <ele>278.5</ele>
        <time>2015-07-17T08:57:08.934Z</time>
      </trkpt>
      <trkpt lat="45.98638" lon="4.87559">
        <ele>275.799987793</ele>
        <time>2015-07-17T08:57:12.971Z</time>
      </trkpt>
      <trkpt lat="45.98644" lon="4.87566">
        <ele>275.100006104</ele>
        <time>2015-07-17T08:57:13.915Z</time>
      </trkpt>
      <trkpt lat="45.98658" lon="4.87574">
        <ele>273.799987793</ele>
        <time>2015-07-17T08:57:15.921Z</time>
      </trkpt>
      <trkpt lat="45.98671" lon="4.87576">
        <ele>273.200012207</ele>
        <time>2015-07-17T08:57:17.914Z</time>
      </trkpt>
      <trkpt lat="45.98692" lon="4.87571">
        <ele>272.200012207</ele>
        <time>2015-07-17T08:57:20.915Z</time>
      </trkpt>
      <trkpt lat="45.9871" lon="4.87563">
        <ele>272.200012207</ele>
        <time>2015-07-17T08:57:23.915Z</time>
      </trkpt>
      <trkpt lat="45.98738" lon="4.87561">
        <ele>271.600006104</ele>
        <time>2015-07-17T08:57:28.911Z</time>
      </trkpt>
      <trkpt lat="45.98755" lon="4.87569">
        <ele>271.899993896</ele>
        <time>2015-07-17T08:57:31.911Z</time>
      </trkpt>
      <trkpt lat="45.98786" lon="4.876">
        <ele>272</ele>
        <time>2015-07-17T08:57:39.911Z</time>
      </trkpt>
      <trkpt lat="45.98796" lon="4.8762">
        <ele>271.700012207</ele>
        <time>2015-07-17T08:57:43.912Z</time>
      </trkpt>
      <trkpt lat="45.98823" lon="4.87726">
        <ele>270.299987793</ele>
        <time>2015-07-17T08:57:57.911Z</time>
      </trkpt>
      <trkpt lat="45.98834" lon="4.87755">
        <ele>271.100006104</ele>
        <time>2015-07-17T08:58:01.912Z</time>
      </trkpt>
      <trkpt lat="45.9884" lon="4.87783">
        <ele>271.799987793</ele>
        <time>2015-07-17T08:58:05.918Z</time>
      </trkpt>
      <trkpt lat="45.98863" lon="4.87849">
        <ele>273.5</ele>
        <time>2015-07-17T08:58:15.911Z</time>
      </trkpt>
      <trkpt lat="45.98919" lon="4.87911">
        <ele>275</ele>
        <time>2015-07-17T08:58:27.912Z</time>
      </trkpt>
      <trkpt lat="45.99002" lon="4.87965">
        <ele>279.899993896</ele>
        <time>2015-07-17T08:58:50.911Z</time>
      </trkpt>
      <trkpt lat="45.99039" lon="4.87979">
        <ele>281</ele>
        <time>2015-07-17T08:58:59.921Z</time>
      </trkpt>
      <trkpt lat="45.99136" lon="4.88036">
        <ele>278.600006104</ele>
        <time>2015-07-17T08:59:22.941Z</time>
      </trkpt>
      <trkpt lat="45.99181" lon="4.88068">
        <ele>279.600006104</ele>
        <time>2015-07-17T08:59:33.912Z</time>
      </trkpt>
      <trkpt lat="45.99269" lon="4.88145">
        <ele>280.600006104</ele>
        <time>2015-07-17T08:59:54.91Z</time>
      </trkpt>
      <trkpt lat="45.99342" lon="4.88214">
        <ele>283.899993896</ele>
        <time>2015-07-17T09:00:11.911Z</time>
      </trkpt>
      <trkpt lat="45.99367" lon="4.88243">
        <ele>285.299987793</ele>
        <time>2015-07-17T09:00:17.913Z</time>
      </trkpt>
      <trkpt lat="45.9938" lon="4.88267">
        <ele>286.399993896</ele>
        <time>2015-07-17T09:00:21.913Z</time>
      </trkpt>
      <trkpt lat="45.99402" lon="4.88329">
        <ele>288</ele>
        <time>2015-07-17T09:00:30.91Z</time>
      </trkpt>
      <trkpt lat="45.99429" lon="4.88391">
        <ele>289.399993896</ele>
        <time>2015-07-17T09:00:40.928Z</time>
      </trkpt>
      <trkpt lat="45.9944" lon="4.88408">
        <ele>289.899993896</ele>
        <time>2015-07-17T09:00:43.913Z</time>
      </trkpt>
      <trkpt lat="45.9948" lon="4.88447">
        <ele>288.899993896</ele>
        <time>2015-07-17T09:00:52.91Z</time>
      </trkpt>
      <trkpt lat="45.99522" lon="4.88529">
        <ele>289.899993896</ele>
        <time>2015-07-17T09:01:05.916Z</time>
      </trkpt>
      <trkpt lat="45.99537" lon="4.8857">
        <ele>289.700012207</ele>
        <time>2015-07-17T09:01:11.913Z</time>
      </trkpt>
      <trkpt lat="45.99543" lon="4.88591">
        <ele>289.799987793</ele>
        <time>2015-07-17T09:01:14.911Z</time>
      </trkpt>
      <trkpt lat="45.99554" lon="4.88711">
        <ele>291.600006104</ele>
        <time>2015-07-17T09:01:30.91Z</time>
      </trkpt>
      <trkpt lat="45.9956" lon="4.88746">
        <ele>291.100006104</ele>
        <time>2015-07-17T09:01:35.913Z</time>
      </trkpt>
      <trkpt lat="45.99581" lon="4.89">
        <ele>292.399993896</ele>
        <time>2015-07-17T09:02:10.924Z</time>
      </trkpt>
      <trkpt lat="45.99574" lon="4.89124">
        <ele>290.600006104</ele>
        <time>2015-07-17T09:02:26.924Z</time>
      </trkpt>
      <trkpt lat="45.9958" lon="4.89196">
        <ele>289.5</ele>
        <time>2015-07-17T09:02:35.916Z</time>
      </trkpt>
      <trkpt lat="45.99584" lon="4.89293">
        <ele>289.299987793</ele>
        <time>2015-07-17T09:02:47.911Z</time>
      </trkpt>
      <trkpt lat="45.99596" lon="4.89485">
        <ele>288</ele>
        <time>2015-07-17T09:03:12.911Z</time>
      </trkpt>
      <trkpt lat="45.99604" lon="4.89673">
        <ele>292.700012207</ele>
        <time>2015-07-17T09:03:37.911Z</time>
      </trkpt>
      <trkpt lat="45.99596" lon="4.89815">
        <ele>299.5</ele>
        <time>2015-07-17T09:03:55.913Z</time>
      </trkpt>
      <trkpt lat="45.99595" lon="4.89919">
        <ele>301.100006104</ele>
        <time>2015-07-17T09:04:09.916Z</time>
      </trkpt>
      <trkpt lat="45.99598" lon="4.89978">
        <ele>301.5</ele>
        <time>2015-07-17T09:04:17.914Z</time>
      </trkpt>
      <trkpt lat="45.99603" lon="4.90004">
        <ele>300.299987793</ele>
        <time>2015-07-17T09:04:21.914Z</time>
      </trkpt>
      <trkpt lat="45.9961" lon="4.90028">
        <ele>298.799987793</ele>
        <time>2015-07-17T09:04:25.91Z</time>
      </trkpt>
      <trkpt lat="45.99635" lon="4.90084">
        <ele>297.700012207</ele>
        <time>2015-07-17T09:04:35.916Z</time>
      </trkpt>
      <trkpt lat="45.9965" lon="4.90154">
        <ele>299.700012207</ele>
        <time>2015-07-17T09:04:49.974Z</time>
      </trkpt>
      <trkpt lat="45.99664" lon="4.90195">
        <ele>303.600006104</ele>
        <time>2015-07-17T09:04:58.911Z</time>
      </trkpt>
      <trkpt lat="45.99675" lon="4.90252">
        <ele>307.299987793</ele>
        <time>2015-07-17T09:05:10.911Z</time>
      </trkpt>
      <trkpt lat="45.9967" lon="4.90313">
        <ele>309.399993896</ele>
        <time>2015-07-17T09:05:22.913Z</time>
      </trkpt>
      <trkpt lat="45.99672" lon="4.90329">
        <ele>310</ele>
        <time>2015-07-17T09:05:27.928Z</time>
      </trkpt>
      <trkpt lat="45.99685" lon="4.90332">
        <ele>311.200012207</ele>
        <time>2015-07-17T09:05:32.913Z</time>
      </trkpt>
      <trkpt lat="45.99706" lon="4.9033">
        <ele>312.299987793</ele>
        <time>2015-07-17T09:05:38.911Z</time>
      </trkpt>
      <trkpt lat="45.99749" lon="4.90305">
        <ele>314</ele>
        <time>2015-07-17T09:05:48.913Z</time>
      </trkpt>
      <trkpt lat="45.99822" lon="4.90242">
        <ele>317.5</ele>
        <time>2015-07-17T09:06:02.909Z</time>
      </trkpt>
      <trkpt lat="45.99839" lon="4.90232">
        <ele>318.399993896</ele>
        <time>2015-07-17T09:06:05.915Z</time>
      </trkpt>
      <trkpt lat="45.99945" lon="4.90232">
        <ele>319.700012207</ele>
        <time>2015-07-17T09:06:19.916Z</time>
      </trkpt>
      <trkpt lat="46.00031" lon="4.90242">
        <ele>310.200012207</ele>
        <time>2015-07-17T09:06:29.915Z</time>
      </trkpt>
      <trkpt lat="46.0008" lon="4.9024">
        <ele>307.200012207</ele>
        <time>2015-07-17T09:06:35.947Z</time>
      </trkpt>
      <trkpt lat="46.00094" lon="4.90247">
        <ele>306</ele>
        <time>2015-07-17T09:06:37.912Z</time>
      </trkpt>
      <trkpt lat="46.00243" lon="4.90387">
        <ele>290.700012207</ele>
        <time>2015-07-17T09:07:04.91Z</time>
      </trkpt>
      <trkpt lat="46.0028" lon="4.90426">
        <ele>290.600006104</ele>
        <time>2015-07-17T09:07:13.909Z</time>
      </trkpt>
      <trkpt lat="46.00316" lon="4.90472">
        <ele>292.200012207</ele>
        <time>2015-07-17T09:07:22.911Z</time>
      </trkpt>
      <trkpt lat="46.00351" lon="4.9053">
        <ele>295.299987793</ele>
        <time>2015-07-17T09:07:31.948Z</time>
      </trkpt>
      <trkpt lat="46.00382" lon="4.90587">
        <ele>295.700012207</ele>
        <time>2015-07-17T09:07:39.915Z</time>
      </trkpt>
      <trkpt lat="46.00414" lon="4.90672">
        <ele>294.600006104</ele>
        <time>2015-07-17T09:07:50.909Z</time>
      </trkpt>
      <trkpt lat="46.00421" lon="4.90707">
        <ele>294.600006104</ele>
        <time>2015-07-17T09:07:54.907Z</time>
      </trkpt>
      <trkpt lat="46.00428" lon="4.90781">
        <ele>291.799987793</ele>
        <time>2015-07-17T09:08:03.908Z</time>
      </trkpt>
      <trkpt lat="46.00433" lon="4.90867">
        <ele>293.200012207</ele>
        <time>2015-07-17T09:08:13.911Z</time>
      </trkpt>
      <trkpt lat="46.00429" lon="4.90939">
        <ele>293.299987793</ele>
        <time>2015-07-17T09:08:22.907Z</time>
      </trkpt>
      <trkpt lat="46.00431" lon="4.91049">
        <ele>293.700012207</ele>
        <time>2015-07-17T09:08:36.908Z</time>
      </trkpt>
      <trkpt lat="46.00428" lon="4.91085">
        <ele>293.600006104</ele>
        <time>2015-07-17T09:08:40.909Z</time>
      </trkpt>
      <trkpt lat="46.00415" lon="4.91168">
        <ele>295</ele>
        <time>2015-07-17T09:08:50.912Z</time>
      </trkpt>
      <trkpt lat="46.00417" lon="4.91196">
        <ele>295.5</ele>
        <time>2015-07-17T09:08:53.913Z</time>
      </trkpt>
      <trkpt lat="46.00426" lon="4.91222">
        <ele>295.5</ele>
        <time>2015-07-17T09:08:56.947Z</time>
      </trkpt>
      <trkpt lat="46.00494" lon="4.91371">
        <ele>297.600006104</ele>
        <time>2015-07-17T09:09:17.961Z</time>
      </trkpt>
      <trkpt lat="46.00517" lon="4.91429">
        <ele>300</ele>
        <time>2015-07-17T09:09:25.909Z</time>
      </trkpt>
      <trkpt lat="46.00533" lon="4.91456">
        <ele>300.299987793</ele>
        <time>2015-07-17T09:09:29.921Z</time>
      </trkpt>
      <trkpt lat="46.00547" lon="4.91473">
        <ele>300.399993896</ele>
        <time>2015-07-17T09:09:32.924Z</time>
      </trkpt>
      <trkpt lat="46.00581" lon="4.91493">
        <ele>300.299987793</ele>
        <time>2015-07-17T09:09:38.907Z</time>
      </trkpt>
      <trkpt lat="46.00648" lon="4.91518">
        <ele>294.100006104</ele>
        <time>2015-07-17T09:09:49.923Z</time>
      </trkpt>
      <trkpt lat="46.00665" lon="4.9153">
        <ele>293.799987793</ele>
        <time>2015-07-17T09:09:52.907Z</time>
      </trkpt>
      <trkpt lat="46.00679" lon="4.91548">
        <ele>294.100006104</ele>
        <time>2015-07-17T09:09:55.913Z</time>
      </trkpt>
      <trkpt lat="46.00697" lon="4.91586">
        <ele>294.600006104</ele>
        <time>2015-07-17T09:10:00.91Z</time>
      </trkpt>
      <trkpt lat="46.00748" lon="4.91784">
        <ele>294.899993896</ele>
        <time>2015-07-17T09:10:24.909Z</time>
      </trkpt>
      <trkpt lat="46.00758" lon="4.91804">
        <ele>295.100006104</ele>
        <time>2015-07-17T09:10:27.908Z</time>
      </trkpt>
      <trkpt lat="46.00791" lon="4.91843">
        <ele>295.899993896</ele>
        <time>2015-07-17T09:10:34.907Z</time>
      </trkpt>
      <trkpt lat="46.00846" lon="4.91896">
        <ele>296.899993896</ele>
        <time>2015-07-17T09:10:45.001Z</time>
      </trkpt>
      <trkpt lat="46.0091" lon="4.91968">
        <ele>296.899993896</ele>
        <time>2015-07-17T09:10:57.912Z</time>
      </trkpt>
      <trkpt lat="46.01043" lon="4.92133">
        <ele>299</ele>
        <time>2015-07-17T09:11:25.913Z</time>
      </trkpt>
      <trkpt lat="46.01061" lon="4.92159">
        <ele>299.299987793</ele>
        <time>2015-07-17T09:11:29.935Z</time>
      </trkpt>
      <trkpt lat="46.01095" lon="4.92197">
        <ele>300.399993896</ele>
        <time>2015-07-17T09:11:36.909Z</time>
      </trkpt>
      <trkpt lat="46.01111" lon="4.92207">
        <ele>300.799987793</ele>
        <time>2015-07-17T09:11:39.934Z</time>
      </trkpt>
      <trkpt lat="46.0114" lon="4.92213">
        <ele>300.799987793</ele>
        <time>2015-07-17T09:11:44.908Z</time>
      </trkpt>
      <trkpt lat="46.0122" lon="4.92214">
        <ele>299.899993896</ele>
        <time>2015-07-17T09:11:57.907Z</time>
      </trkpt>
      <trkpt lat="46.01289" lon="4.92197">
        <ele>297.100006104</ele>
        <time>2015-07-17T09:12:08.907Z</time>
      </trkpt>
      <trkpt lat="46.0137" lon="4.92189">
        <ele>296</ele>
        <time>2015-07-17T09:12:19.942Z</time>
      </trkpt>
      <trkpt lat="46.01493" lon="4.92207">
        <ele>297.600006104</ele>
        <time>2015-07-17T09:12:36.91Z</time>
      </trkpt>
      <trkpt lat="46.01549" lon="4.92195">
        <ele>299.600006104</ele>
        <time>2015-07-17T09:12:44.91Z</time>
      </trkpt>
      <trkpt lat="46.01641" lon="4.92197">
        <ele>291</ele>
        <time>2015-07-17T09:12:57.912Z</time>
      </trkpt>
      <trkpt lat="46.01659" lon="4.92203">
        <ele>290.799987793</ele>
        <time>2015-07-17T09:13:00.932Z</time>
      </trkpt>
      <trkpt lat="46.01675" lon="4.92217">
        <ele>290.899993896</ele>
        <time>2015-07-17T09:13:03.919Z</time>
      </trkpt>
      <trkpt lat="46.01693" lon="4.92243">
        <ele>290</ele>
        <time>2015-07-17T09:13:07.908Z</time>
      </trkpt>
      <trkpt lat="46.01708" lon="4.92276">
        <ele>289.600006104</ele>
        <time>2015-07-17T09:13:11.911Z</time>
      </trkpt>
      <trkpt lat="46.01735" lon="4.92348">
        <ele>289.899993896</ele>
        <time>2015-07-17T09:13:19.935Z</time>
      </trkpt>
      <trkpt lat="46.01787" lon="4.92464">
        <ele>286</ele>
        <time>2015-07-17T09:13:33.907Z</time>
      </trkpt>
      <trkpt lat="46.01872" lon="4.92665">
        <ele>287.299987793</ele>
        <time>2015-07-17T09:13:58.907Z</time>
      </trkpt>
      <trkpt lat="46.01912" lon="4.92748">
        <ele>290.700012207</ele>
        <time>2015-07-17T09:14:12.909Z</time>
      </trkpt>
      <trkpt lat="46.01955" lon="4.92855">
        <ele>292.700012207</ele>
        <time>2015-07-17T09:14:30.907Z</time>
      </trkpt>
      <trkpt lat="46.01956" lon="4.92875">
        <ele>292.899993896</ele>
        <time>2015-07-17T09:14:33.907Z</time>
      </trkpt>
      <trkpt lat="46.01945" lon="4.92912">
        <ele>293.700012207</ele>
        <time>2015-07-17T09:14:40.907Z</time>
      </trkpt>
      <trkpt lat="46.01944" lon="4.92925">
        <ele>294</ele>
        <time>2015-07-17T09:14:42.91Z</time>
      </trkpt>
      <trkpt lat="46.01899" lon="4.9312">
        <ele>296.200012207</ele>
        <time>2015-07-17T09:15:11.913Z</time>
      </trkpt>
      <trkpt lat="46.01894" lon="4.93163">
        <ele>296.600006104</ele>
        <time>2015-07-17T09:15:17.91Z</time>
      </trkpt>
      <trkpt lat="46.01897" lon="4.93236">
        <ele>297.899993896</ele>
        <time>2015-07-17T09:15:27.907Z</time>
      </trkpt>
      <trkpt lat="46.01894" lon="4.933">
        <ele>298.200012207</ele>
        <time>2015-07-17T09:15:35.91Z</time>
      </trkpt>
      <trkpt lat="46.01891" lon="4.93321">
        <ele>297.299987793</ele>
        <time>2015-07-17T09:15:38.908Z</time>
      </trkpt>
      <trkpt lat="46.01874" lon="4.9338">
        <ele>299.600006104</ele>
        <time>2015-07-17T09:15:47.91Z</time>
      </trkpt>
      <trkpt lat="46.01861" lon="4.93415">
        <ele>298.899993896</ele>
        <time>2015-07-17T09:15:52.911Z</time>
      </trkpt>
      <trkpt lat="46.01839" lon="4.93497">
        <ele>300.899993896</ele>
        <time>2015-07-17T09:16:03.93Z</time>
      </trkpt>
      <trkpt lat="46.01842" lon="4.93511">
        <ele>300.200012207</ele>
        <time>2015-07-17T09:16:05.91Z</time>
      </trkpt>
      <trkpt lat="46.01877" lon="4.93584">
        <ele>299.399993896</ele>
        <time>2015-07-17T09:16:15.911Z</time>
      </trkpt>
      <trkpt lat="46.01898" lon="4.93635">
        <ele>298.399993896</ele>
        <time>2015-07-17T09:16:21.907Z</time>
      </trkpt>
      <trkpt lat="46.01936" lon="4.93706">
        <ele>295.700012207</ele>
        <time>2015-07-17T09:16:31.908Z</time>
      </trkpt>
      <trkpt lat="46.01982" lon="4.93774">
        <ele>294.299987793</ele>
        <time>2015-07-17T09:16:41.91Z</time>
      </trkpt>
      <trkpt lat="46.02006" lon="4.93802">
        <ele>294.399993896</ele>
        <time>2015-07-17T09:16:46.946Z</time>
      </trkpt>
      <trkpt lat="46.02044" lon="4.93864">
        <ele>294.100006104</ele>
        <time>2015-07-17T09:16:55.91Z</time>
      </trkpt>
      <trkpt lat="46.0209" lon="4.93949">
        <ele>293.899993896</ele>
        <time>2015-07-17T09:17:06.906Z</time>
      </trkpt>
      <trkpt lat="46.02099" lon="4.93972">
        <ele>293.100006104</ele>
        <time>2015-07-17T09:17:09.906Z</time>
      </trkpt>
      <trkpt lat="46.02116" lon="4.94041">
        <ele>292.200012207</ele>
        <time>2015-07-17T09:17:17.909Z</time>
      </trkpt>
      <trkpt lat="46.02135" lon="4.94105">
        <ele>290.5</ele>
        <time>2015-07-17T09:17:24.941Z</time>
      </trkpt>
      <trkpt lat="46.02158" lon="4.94218">
        <ele>289.600006104</ele>
        <time>2015-07-17T09:17:35.912Z</time>
      </trkpt>
      <trkpt lat="46.02175" lon="4.94275">
        <ele>288.200012207</ele>
        <time>2015-07-17T09:17:41.91Z</time>
      </trkpt>
      <trkpt lat="46.02215" lon="4.94438">
        <ele>287.5</ele>
        <time>2015-07-17T09:17:58.906Z</time>
      </trkpt>
      <trkpt lat="46.02232" lon="4.94525">
        <ele>286.5</ele>
        <time>2015-07-17T09:18:07.9Z</time>
      </trkpt>
      <trkpt lat="46.0225" lon="4.94585">
        <ele>286.299987793</ele>
        <time>2015-07-17T09:18:14.911Z</time>
      </trkpt>
      <trkpt lat="46.02301" lon="4.94705">
        <ele>284.899993896</ele>
        <time>2015-07-17T09:18:29.909Z</time>
      </trkpt>
      <trkpt lat="46.02333" lon="4.94791">
        <ele>285.200012207</ele>
        <time>2015-07-17T09:18:40.91Z</time>
      </trkpt>
      <trkpt lat="46.02341" lon="4.94826">
        <ele>286.100006104</ele>
        <time>2015-07-17T09:18:44.906Z</time>
      </trkpt>
      <trkpt lat="46.02401" lon="4.95046">
        <ele>285.200012207</ele>
        <time>2015-07-17T09:19:08.91Z</time>
      </trkpt>
      <trkpt lat="46.0241" lon="4.95071">
        <ele>284.899993896</ele>
        <time>2015-07-17T09:19:11.911Z</time>
      </trkpt>
      <trkpt lat="46.02504" lon="4.95276">
        <ele>285</ele>
        <time>2015-07-17T09:19:35.91Z</time>
      </trkpt>
      <trkpt lat="46.02579" lon="4.95421">
        <ele>284.700012207</ele>
        <time>2015-07-17T09:19:55.912Z</time>
      </trkpt>
      <trkpt lat="46.02588" lon="4.95443">
        <ele>284.700012207</ele>
        <time>2015-07-17T09:19:58.909Z</time>
      </trkpt>
      <trkpt lat="46.02611" lon="4.95518">
        <ele>284.700012207</ele>
        <time>2015-07-17T09:20:07.908Z</time>
      </trkpt>
      <trkpt lat="46.02632" lon="4.95623">
        <ele>287.899993896</ele>
        <time>2015-07-17T09:20:20.906Z</time>
      </trkpt>
      <trkpt lat="46.0264" lon="4.95708">
        <ele>289.799987793</ele>
        <time>2015-07-17T09:20:30.908Z</time>
      </trkpt>
      <trkpt lat="46.02667" lon="4.95917">
        <ele>289</ele>
        <time>2015-07-17T09:20:54.917Z</time>
      </trkpt>
      <trkpt lat="46.02675" lon="4.95998">
        <ele>290.200012207</ele>
        <time>2015-07-17T09:21:03.91Z</time>
      </trkpt>
      <trkpt lat="46.02681" lon="4.96034">
        <ele>291.299987793</ele>
        <time>2015-07-17T09:21:08.905Z</time>
      </trkpt>
      <trkpt lat="46.02686" lon="4.9611">
        <ele>292.5</ele>
        <time>2015-07-17T09:21:17.909Z</time>
      </trkpt>
      <trkpt lat="46.02681" lon="4.96204">
        <ele>291.399993896</ele>
        <time>2015-07-17T09:21:27.906Z</time>
      </trkpt>
      <trkpt lat="46.02648" lon="4.9643">
        <ele>289.100006104</ele>
        <time>2015-07-17T09:21:54.909Z</time>
      </trkpt>
      <trkpt lat="46.02646" lon="4.96503">
        <ele>284.600006104</ele>
        <time>2015-07-17T09:22:02.905Z</time>
      </trkpt>
      <trkpt lat="46.02647" lon="4.96592">
        <ele>282.700012207</ele>
        <time>2015-07-17T09:22:12.908Z</time>
      </trkpt>
      <trkpt lat="46.02644" lon="4.96618">
        <ele>281.899993896</ele>
        <time>2015-07-17T09:22:15.906Z</time>
      </trkpt>
      <trkpt lat="46.02647" lon="4.96756">
        <ele>281.5</ele>
        <time>2015-07-17T09:22:31.909Z</time>
      </trkpt>
      <trkpt lat="46.02645" lon="4.96869">
        <ele>283.100006104</ele>
        <time>2015-07-17T09:22:44.908Z</time>
      </trkpt>
      <trkpt lat="46.02647" lon="4.96944">
        <ele>285.5</ele>
        <time>2015-07-17T09:22:54.906Z</time>
      </trkpt>
      <trkpt lat="46.0265" lon="4.96965">
        <ele>286.799987793</ele>
        <time>2015-07-17T09:22:57.907Z</time>
      </trkpt>
      <trkpt lat="46.02655" lon="4.9698">
        <ele>287.100006104</ele>
        <time>2015-07-17T09:22:59.911Z</time>
      </trkpt>
      <trkpt lat="46.02732" lon="4.97096">
        <ele>290.100006104</ele>
        <time>2015-07-17T09:23:18.909Z</time>
      </trkpt>
      <trkpt lat="46.02747" lon="4.97125">
        <ele>289.100006104</ele>
        <time>2015-07-17T09:23:22.906Z</time>
      </trkpt>
      <trkpt lat="46.02779" lon="4.97273">
        <ele>284.700012207</ele>
        <time>2015-07-17T09:23:40.922Z</time>
      </trkpt>
      <trkpt lat="46.02781" lon="4.97291">
        <ele>284.299987793</ele>
        <time>2015-07-17T09:23:42.91Z</time>
      </trkpt>
      <trkpt lat="46.0278" lon="4.97354">
        <ele>283.600006104</ele>
        <time>2015-07-17T09:23:49.908Z</time>
      </trkpt>
      <trkpt lat="46.02781" lon="4.97369">
        <ele>283.100006104</ele>
        <time>2015-07-17T09:23:51.908Z</time>
      </trkpt>
      <trkpt lat="46.0279" lon="4.9739">
        <ele>283.100006104</ele>
        <time>2015-07-17T09:23:54.908Z</time>
      </trkpt>
      <trkpt lat="46.02798" lon="4.97398">
        <ele>283.299987793</ele>
        <time>2015-07-17T09:23:56.924Z</time>
      </trkpt>
      <trkpt lat="46.02822" lon="4.97416">
        <ele>284.600006104</ele>
        <time>2015-07-17T09:24:01.906Z</time>
      </trkpt>
      <trkpt lat="46.03005" lon="4.97519">
        <ele>286.700012207</ele>
        <time>2015-07-17T09:24:35.911Z</time>
      </trkpt>
      <trkpt lat="46.03071" lon="4.97561">
        <ele>284.5</ele>
        <time>2015-07-17T09:24:49.906Z</time>
      </trkpt>
      <trkpt lat="46.03074" lon="4.97577">
        <ele>284.799987793</ele>
        <time>2015-07-17T09:24:52.907Z</time>
      </trkpt>
      <trkpt lat="46.03028" lon="4.97673">
        <ele>286.200012207</ele>
        <time>2015-07-17T09:25:07.906Z</time>
      </trkpt>
      <trkpt lat="46.02978" lon="4.978">
        <ele>286.299987793</ele>
        <time>2015-07-17T09:25:24.915Z</time>
      </trkpt>
      <trkpt lat="46.0292" lon="4.97962">
        <ele>289.5</ele>
        <time>2015-07-17T09:25:46.905Z</time>
      </trkpt>
      <trkpt lat="46.02893" lon="4.98027">
        <ele>290.399993896</ele>
        <time>2015-07-17T09:25:56.943Z</time>
      </trkpt>
      <trkpt lat="46.02827" lon="4.98205">
        <ele>294.600006104</ele>
        <time>2015-07-17T09:26:21.961Z</time>
      </trkpt>
      <trkpt lat="46.02818" lon="4.98224">
        <ele>295.299987793</ele>
        <time>2015-07-17T09:26:24.905Z</time>
      </trkpt>
      <trkpt lat="46.02777" lon="4.9834">
        <ele>298</ele>
        <time>2015-07-17T09:26:40.905Z</time>
      </trkpt>
      <trkpt lat="46.0275" lon="4.98406">
        <ele>299.5</ele>
        <time>2015-07-17T09:26:50.907Z</time>
      </trkpt>
      <trkpt lat="46.0274" lon="4.9844">
        <ele>300.200012207</ele>
        <time>2015-07-17T09:26:54.905Z</time>
      </trkpt>
      <trkpt lat="46.02607" lon="4.98788">
        <ele>306.899993896</ele>
        <time>2015-07-17T09:27:42.909Z</time>
      </trkpt>
      <trkpt lat="46.02574" lon="4.98883">
        <ele>307</ele>
        <time>2015-07-17T09:27:54.906Z</time>
      </trkpt>
      <trkpt lat="46.0253" lon="4.98992">
        <ele>307.299987793</ele>
        <time>2015-07-17T09:28:08.907Z</time>
      </trkpt>
      <trkpt lat="46.02524" lon="4.99014">
        <ele>306.5</ele>
        <time>2015-07-17T09:28:11.908Z</time>
      </trkpt>
      <trkpt lat="46.02515" lon="4.99034">
        <ele>306.399993896</ele>
        <time>2015-07-17T09:28:14.905Z</time>
      </trkpt>
      <trkpt lat="46.02506" lon="4.99041">
        <ele>306.200012207</ele>
        <time>2015-07-17T09:28:16.905Z</time>
      </trkpt>
      <trkpt lat="46.02497" lon="4.99043">
        <ele>305.600006104</ele>
        <time>2015-07-17T09:28:18.905Z</time>
      </trkpt>
      <trkpt lat="46.02474" lon="4.99036">
        <ele>304.600006104</ele>
        <time>2015-07-17T09:28:22.91Z</time>
      </trkpt>
      <trkpt lat="46.02407" lon="4.99027">
        <ele>302</ele>
        <time>2015-07-17T09:28:34.905Z</time>
      </trkpt>
      <trkpt lat="46.02393" lon="4.99029">
        <ele>301.299987793</ele>
        <time>2015-07-17T09:28:36.907Z</time>
      </trkpt>
      <trkpt lat="46.02381" lon="4.99037">
        <ele>301.100006104</ele>
        <time>2015-07-17T09:28:38.906Z</time>
      </trkpt>
      <trkpt lat="46.02367" lon="4.99052">
        <ele>300</ele>
        <time>2015-07-17T09:28:41.912Z</time>
      </trkpt>
      <trkpt lat="46.02335" lon="4.99107">
        <ele>297.100006104</ele>
        <time>2015-07-17T09:28:50.908Z</time>
      </trkpt>
      <trkpt lat="46.02322" lon="4.9912">
        <ele>296.200012207</ele>
        <time>2015-07-17T09:28:53.912Z</time>
      </trkpt>
      <trkpt lat="46.02306" lon="4.9913">
        <ele>295.299987793</ele>
        <time>2015-07-17T09:28:56.907Z</time>
      </trkpt>
      <trkpt lat="46.02286" lon="4.9913">
        <ele>294.200012207</ele>
        <time>2015-07-17T09:29:00.908Z</time>
      </trkpt>
      <trkpt lat="46.02246" lon="4.99113">
        <ele>293.100006104</ele>
        <time>2015-07-17T09:29:08.904Z</time>
      </trkpt>
      <trkpt lat="46.02229" lon="4.99112">
        <ele>292.600006104</ele>
        <time>2015-07-17T09:29:11.908Z</time>
      </trkpt>
      <trkpt lat="46.02219" lon="4.99124">
        <ele>292.100006104</ele>
        <time>2015-07-17T09:29:14.91Z</time>
      </trkpt>
      <trkpt lat="46.02182" lon="4.99155">
        <ele>292.299987793</ele>
        <time>2015-07-17T09:29:22.961Z</time>
      </trkpt>
      <trkpt lat="46.02173" lon="4.99165">
        <ele>292.299987793</ele>
        <time>2015-07-17T09:29:24.908Z</time>
      </trkpt>
      <trkpt lat="46.02159" lon="4.99194">
        <ele>291.600006104</ele>
        <time>2015-07-17T09:29:28.92Z</time>
      </trkpt>
      <trkpt lat="46.0208" lon="4.9942">
        <ele>283.100006104</ele>
        <time>2015-07-17T09:29:59.907Z</time>
      </trkpt>
      <trkpt lat="46.0197" lon="4.99716">
        <ele>282.399993896</ele>
        <time>2015-07-17T09:30:38.904Z</time>
      </trkpt>
      <trkpt lat="46.01926" lon="4.99821">
        <ele>288.600006104</ele>
        <time>2015-07-17T09:30:53.929Z</time>
      </trkpt>
      <trkpt lat="46.01907" lon="4.99879">
        <ele>291.100006104</ele>
        <time>2015-07-17T09:31:01.905Z</time>
      </trkpt>
      <trkpt lat="46.01864" lon="4.99976">
        <ele>299.700012207</ele>
        <time>2015-07-17T09:31:16.904Z</time>
      </trkpt>
      <trkpt lat="46.01823" lon="5.0008">
        <ele>308.700012207</ele>
        <time>2015-07-17T09:31:31.905Z</time>
      </trkpt>
      <trkpt lat="46.01806" lon="5.00118">
        <ele>315.299987793</ele>
        <time>2015-07-17T09:31:37.944Z</time>
      </trkpt>
      <trkpt lat="46.01777" lon="5.00192">
        <ele>320</ele>
        <time>2015-07-17T09:31:48.908Z</time>
      </trkpt>
      <trkpt lat="46.01737" lon="5.00284">
        <ele>328.600006104</ele>
        <time>2015-07-17T09:32:02.904Z</time>
      </trkpt>
      <trkpt lat="46.01706" lon="5.00367">
        <ele>332.600006104</ele>
        <time>2015-07-17T09:32:13.907Z</time>
      </trkpt>
      <trkpt lat="46.01693" lon="5.0039">
        <ele>332.899993896</ele>
        <time>2015-07-17T09:32:16.909Z</time>
      </trkpt>
      <trkpt lat="46.01636" lon="5.00518">
        <ele>340</ele>
        <time>2015-07-17T09:32:32.904Z</time>
      </trkpt>
      <trkpt lat="46.01592" lon="5.00653">
        <ele>337.399993896</ele>
        <time>2015-07-17T09:32:48.904Z</time>
      </trkpt>
      <trkpt lat="46.01573" lon="5.00695">
        <ele>333</ele>
        <time>2015-07-17T09:32:54.904Z</time>
      </trkpt>
      <trkpt lat="46.01513" lon="5.00854">
        <ele>315</ele>
        <time>2015-07-17T09:33:16.908Z</time>
      </trkpt>
      <trkpt lat="46.01453" lon="5.00982">
        <ele>298.899993896</ele>
        <time>2015-07-17T09:33:34.907Z</time>
      </trkpt>
      <trkpt lat="46.0135" lon="5.01185">
        <ele>279.899993896</ele>
        <time>2015-07-17T09:34:01.904Z</time>
      </trkpt>
      <trkpt lat="46.01307" lon="5.01259">
        <ele>280.5</ele>
        <time>2015-07-17T09:34:11.921Z</time>
      </trkpt>
      <trkpt lat="46.01276" lon="5.01308">
        <ele>282.399993896</ele>
        <time>2015-07-17T09:34:18.907Z</time>
      </trkpt>
      <trkpt lat="46.01246" lon="5.01377">
        <ele>283.200012207</ele>
        <time>2015-07-17T09:34:27.904Z</time>
      </trkpt>
      <trkpt lat="46.01157" lon="5.01631">
        <ele>280.700012207</ele>
        <time>2015-07-17T09:34:58.904Z</time>
      </trkpt>
      <trkpt lat="46.01113" lon="5.01725">
        <ele>279.5</ele>
        <time>2015-07-17T09:35:09.907Z</time>
      </trkpt>
      <trkpt lat="46.01094" lon="5.01775">
        <ele>278.100006104</ele>
        <time>2015-07-17T09:35:15.907Z</time>
      </trkpt>
      <trkpt lat="46.01034" lon="5.01907">
        <ele>276.600006104</ele>
        <time>2015-07-17T09:35:32.903Z</time>
      </trkpt>
      <trkpt lat="46.00996" lon="5.01998">
        <ele>276.200012207</ele>
        <time>2015-07-17T09:35:44.904Z</time>
      </trkpt>
      <trkpt lat="46.00933" lon="5.02131">
        <ele>278.399993896</ele>
        <time>2015-07-17T09:36:01.903Z</time>
      </trkpt>
      <trkpt lat="46.0089" lon="5.02216">
        <ele>283.700012207</ele>
        <time>2015-07-17T09:36:13.903Z</time>
      </trkpt>
      <trkpt lat="46.00861" lon="5.02268">
        <ele>282.5</ele>
        <time>2015-07-17T09:36:20.904Z</time>
      </trkpt>
      <trkpt lat="46.00839" lon="5.0229">
        <ele>281.799987793</ele>
        <time>2015-07-17T09:36:24.901Z</time>
      </trkpt>
      <trkpt lat="46.00679" lon="5.02408">
        <ele>281.299987793</ele>
        <time>2015-07-17T09:36:49.904Z</time>
      </trkpt>
      <trkpt lat="46.00625" lon="5.02453">
        <ele>279</ele>
        <time>2015-07-17T09:36:58.901Z</time>
      </trkpt>
      <trkpt lat="46.00527" lon="5.02551">
        <ele>277.299987793</ele>
        <time>2015-07-17T09:37:17.905Z</time>
      </trkpt>
      <trkpt lat="46.00483" lon="5.02589">
        <ele>277.399993896</ele>
        <time>2015-07-17T09:37:26.902Z</time>
      </trkpt>
      <trkpt lat="46.00469" lon="5.02598">
        <ele>278.100006104</ele>
        <time>2015-07-17T09:37:29.907Z</time>
      </trkpt>
      <trkpt lat="46.00443" lon="5.0262">
        <ele>279</ele>
        <time>2015-07-17T09:37:35.928Z</time>
      </trkpt>
      <trkpt lat="46.00426" lon="5.02641">
        <ele>279.899993896</ele>
        <time>2015-07-17T09:37:40.902Z</time>
      </trkpt>
      <trkpt lat="46.00357" lon="5.02706">
        <ele>282.799987793</ele>
        <time>2015-07-17T09:37:58.901Z</time>
      </trkpt>
      <trkpt lat="46.00343" lon="5.02703">
        <ele>283.399993896</ele>
        <time>2015-07-17T09:38:02.906Z</time>
      </trkpt>
      <trkpt lat="46.00275" lon="5.02629">
        <ele>281.299987793</ele>
        <time>2015-07-17T09:38:21.904Z</time>
      </trkpt>
      <trkpt lat="46.00269" lon="5.02619">
        <ele>281.600006104</ele>
        <time>2015-07-17T09:38:23.907Z</time>
      </trkpt>
      <trkpt lat="46.0025" lon="5.02542">
        <ele>282.100006104</ele>
        <time>2015-07-17T09:38:35.905Z</time>
      </trkpt>
      <trkpt lat="46.00203" lon="5.02384">
        <ele>283.100006104</ele>
        <time>2015-07-17T09:39:00.905Z</time>
      </trkpt>
      <trkpt lat="46.0019" lon="5.02321">
        <ele>281.799987793</ele>
        <time>2015-07-17T09:39:10.905Z</time>
      </trkpt>
      <trkpt lat="46.00177" lon="5.0228">
        <ele>280.299987793</ele>
        <time>2015-07-17T09:39:15.906Z</time>
      </trkpt>
      <trkpt lat="46.00158" lon="5.02235">
        <ele>280.700012207</ele>
        <time>2015-07-17T09:39:21.902Z</time>
      </trkpt>
      <trkpt lat="46.00156" lon="5.02219">
        <ele>281.600006104</ele>
        <time>2015-07-17T09:39:23.931Z</time>
      </trkpt>
      <trkpt lat="46.00134" lon="5.02154">
        <ele>282.200012207</ele>
        <time>2015-07-17T09:39:31.927Z</time>
      </trkpt>
      <trkpt lat="46.0012" lon="5.02103">
        <ele>279.5</ele>
        <time>2015-07-17T09:39:37.908Z</time>
      </trkpt>
      <trkpt lat="46.00096" lon="5.02035">
        <ele>278.5</ele>
        <time>2015-07-17T09:39:46.906Z</time>
      </trkpt>
      <trkpt lat="46.00089" lon="5.0201">
        <ele>277.899993896</ele>
        <time>2015-07-17T09:39:49.906Z</time>
      </trkpt>
      <trkpt lat="46.0008" lon="5.01958">
        <ele>275.799987793</ele>
        <time>2015-07-17T09:39:56.902Z</time>
      </trkpt>
      <trkpt lat="46.00056" lon="5.01874">
        <ele>273.100006104</ele>
        <time>2015-07-17T09:40:09.941Z</time>
      </trkpt>
      <trkpt lat="46.00055" lon="5.01861">
        <ele>272.700012207</ele>
        <time>2015-07-17T09:40:11.92Z</time>
      </trkpt>
      <trkpt lat="46.00058" lon="5.01824">
        <ele>271.700012207</ele>
        <time>2015-07-17T09:40:16.901Z</time>
      </trkpt>
      <trkpt lat="46.00066" lon="5.01783">
        <ele>269.799987793</ele>
        <time>2015-07-17T09:40:21.906Z</time>
      </trkpt>
      <trkpt lat="46.00083" lon="5.01656">
        <ele>270.799987793</ele>
        <time>2015-07-17T09:40:36.902Z</time>
      </trkpt>
      <trkpt lat="46.00101" lon="5.01569">
        <ele>271.899993896</ele>
        <time>2015-07-17T09:40:46.902Z</time>
      </trkpt>
      <trkpt lat="46.00163" lon="5.01322">
        <ele>275.299987793</ele>
        <time>2015-07-17T09:41:16.904Z</time>
      </trkpt>
      <trkpt lat="46.0022" lon="5.01177">
        <ele>282.100006104</ele>
        <time>2015-07-17T09:41:34.901Z</time>
      </trkpt>
      <trkpt lat="46.00247" lon="5.01092">
        <ele>282.200012207</ele>
        <time>2015-07-17T09:41:44.901Z</time>
      </trkpt>
      <trkpt lat="46.00284" lon="5.00929">
        <ele>277.799987793</ele>
        <time>2015-07-17T09:42:02.901Z</time>
      </trkpt>
      <trkpt lat="46.00288" lon="5.00893">
        <ele>277.600006104</ele>
        <time>2015-07-17T09:42:06.902Z</time>
      </trkpt>
      <trkpt lat="46.00316" lon="5.00745">
        <ele>273.299987793</ele>
        <time>2015-07-17T09:42:22.901Z</time>
      </trkpt>
      <trkpt lat="46.00318" lon="5.00718">
        <ele>273.299987793</ele>
        <time>2015-07-17T09:42:25.919Z</time>
      </trkpt>
      <trkpt lat="46.00332" lon="5.00638">
        <ele>271.600006104</ele>
        <time>2015-07-17T09:42:34.913Z</time>
      </trkpt>
      <trkpt lat="46.00355" lon="5.00454">
        <ele>272.299987793</ele>
        <time>2015-07-17T09:42:55.905Z</time>
      </trkpt>
      <trkpt lat="46.00363" lon="5.00289">
        <ele>272.899993896</ele>
        <time>2015-07-17T09:43:14.903Z</time>
      </trkpt>
      <trkpt lat="46.00367" lon="5.00247">
        <ele>275</ele>
        <time>2015-07-17T09:43:19.903Z</time>
      </trkpt>
      <trkpt lat="46.00374" lon="5.00209">
        <ele>276.299987793</ele>
        <time>2015-07-17T09:43:24.901Z</time>
      </trkpt>
      <trkpt lat="46.00396" lon="5.00135">
        <ele>276.799987793</ele>
        <time>2015-07-17T09:43:34.952Z</time>
      </trkpt>
      <trkpt lat="46.00398" lon="5.0012">
        <ele>276.100006104</ele>
        <time>2015-07-17T09:43:36.905Z</time>
      </trkpt>
      <trkpt lat="46.00389" lon="5.00114">
        <ele>275.100006104</ele>
        <time>2015-07-17T09:43:38.945Z</time>
      </trkpt>
      <trkpt lat="46.00376" lon="5.00114">
        <ele>275.299987793</ele>
        <time>2015-07-17T09:43:41.905Z</time>
      </trkpt>
      <trkpt lat="46.0033" lon="5.00107">
        <ele>275</ele>
        <time>2015-07-17T09:43:50.918Z</time>
      </trkpt>
      <trkpt lat="46.00188" lon="5.00096">
        <ele>272.899993896</ele>
        <time>2015-07-17T09:44:19.905Z</time>
      </trkpt>
      <trkpt lat="46.00125" lon="5.00087">
        <ele>270.799987793</ele>
        <time>2015-07-17T09:44:31.907Z</time>
      </trkpt>
      <trkpt lat="46.00022" lon="5.00078">
        <ele>271.799987793</ele>
        <time>2015-07-17T09:44:50.904Z</time>
      </trkpt>
      <trkpt lat="46.00005" lon="5.00072">
        <ele>272.600006104</ele>
        <time>2015-07-17T09:44:54.918Z</time>
      </trkpt>
      <trkpt lat="45.99983" lon="5.0005">
        <ele>273.299987793</ele>
        <time>2015-07-17T09:45:00.908Z</time>
      </trkpt>
      <trkpt lat="45.99955" lon="5.0001">
        <ele>274.200012207</ele>
        <time>2015-07-17T09:45:09.905Z</time>
      </trkpt>
      <trkpt lat="45.99861" lon="4.99903">
        <ele>277.700012207</ele>
        <time>2015-07-17T09:45:33.904Z</time>
      </trkpt>
      <trkpt lat="45.9963" lon="4.99621">
        <ele>272.200012207</ele>
        <time>2015-07-17T09:46:28.902Z</time>
      </trkpt>
      <trkpt lat="45.99495" lon="4.9946">
        <ele>271.600006104</ele>
        <time>2015-07-17T09:47:01.903Z</time>
      </trkpt>
      <trkpt lat="45.99461" lon="4.99428">
        <ele>272.899993896</ele>
        <time>2015-07-17T09:47:09.901Z</time>
      </trkpt>
      <trkpt lat="45.99359" lon="4.99359">
        <ele>276</ele>
        <time>2015-07-17T09:47:32.894Z</time>
      </trkpt>
      <trkpt lat="45.99221" lon="4.99273">
        <ele>275.700012207</ele>
        <time>2015-07-17T09:48:03.901Z</time>
      </trkpt>
      <trkpt lat="45.99208" lon="4.9926">
        <ele>276.100006104</ele>
        <time>2015-07-17T09:48:06.945Z</time>
      </trkpt>
      <trkpt lat="45.99189" lon="4.99233">
        <ele>276.299987793</ele>
        <time>2015-07-17T09:48:12.901Z</time>
      </trkpt>
      <trkpt lat="45.99148" lon="4.99159">
        <ele>278</ele>
        <time>2015-07-17T09:48:28.931Z</time>
      </trkpt>
      <trkpt lat="45.99133" lon="4.99143">
        <ele>277</ele>
        <time>2015-07-17T09:48:32.9Z</time>
      </trkpt>
      <trkpt lat="45.99112" lon="4.99138">
        <ele>276.899993896</ele>
        <time>2015-07-17T09:48:36.904Z</time>
      </trkpt>
      <trkpt lat="45.99097" lon="4.99138">
        <ele>277.700012207</ele>
        <time>2015-07-17T09:48:39.901Z</time>
      </trkpt>
      <trkpt lat="45.98968" lon="4.99173">
        <ele>277.299987793</ele>
        <time>2015-07-17T09:49:05.903Z</time>
      </trkpt>
      <trkpt lat="45.98943" lon="4.99177">
        <ele>277.799987793</ele>
        <time>2015-07-17T09:49:10.945Z</time>
      </trkpt>
      <trkpt lat="45.98934" lon="4.99173">
        <ele>277.600006104</ele>
        <time>2015-07-17T09:49:12.902Z</time>
      </trkpt>
      <trkpt lat="45.98919" lon="4.99159">
        <ele>278.299987793</ele>
        <time>2015-07-17T09:49:16.901Z</time>
      </trkpt>
      <trkpt lat="45.989" lon="4.99158">
        <ele>278</ele>
        <time>2015-07-17T09:49:24.921Z</time>
      </trkpt>
      <trkpt lat="45.98876" lon="4.99129">
        <ele>279.799987793</ele>
        <time>2015-07-17T09:49:33.901Z</time>
      </trkpt>
      <trkpt lat="45.98821" lon="4.99083">
        <ele>278.899993896</ele>
        <time>2015-07-17T09:49:47.905Z</time>
      </trkpt>
      <trkpt lat="45.98778" lon="4.99036">
        <ele>279.600006104</ele>
        <time>2015-07-17T09:49:59.903Z</time>
      </trkpt>
      <trkpt lat="45.98749" lon="4.98996">
        <ele>280.200012207</ele>
        <time>2015-07-17T09:50:07.942Z</time>
      </trkpt>
      <trkpt lat="45.98731" lon="4.98964">
        <ele>279.899993896</ele>
        <time>2015-07-17T09:50:12.904Z</time>
      </trkpt>
      <trkpt lat="45.98707" lon="4.98912">
        <ele>282.100006104</ele>
        <time>2015-07-17T09:50:20.901Z</time>
      </trkpt>
      <trkpt lat="45.98667" lon="4.98774">
        <ele>287.399993896</ele>
        <time>2015-07-17T09:50:39.906Z</time>
      </trkpt>
      <trkpt lat="45.98658" lon="4.98752">
        <ele>288.600006104</ele>
        <time>2015-07-17T09:50:42.906Z</time>
      </trkpt>
      <trkpt lat="45.98645" lon="4.98686">
        <ele>288.600006104</ele>
        <time>2015-07-17T09:50:50.901Z</time>
      </trkpt>
      <trkpt lat="45.98557" lon="4.98421">
        <ele>284.5</ele>
        <time>2015-07-17T09:51:21.9Z</time>
      </trkpt>
      <trkpt lat="45.98538" lon="4.98356">
        <ele>282.799987793</ele>
        <time>2015-07-17T09:51:29.903Z</time>
      </trkpt>
      <trkpt lat="45.98506" lon="4.98267">
        <ele>280.700012207</ele>
        <time>2015-07-17T09:51:40.905Z</time>
      </trkpt>
      <trkpt lat="45.98496" lon="4.98245">
        <ele>279.700012207</ele>
        <time>2015-07-17T09:51:43.902Z</time>
      </trkpt>
      <trkpt lat="45.98471" lon="4.98174">
        <ele>277.399993896</ele>
        <time>2015-07-17T09:51:52.9Z</time>
      </trkpt>
      <trkpt lat="45.98455" lon="4.98101">
        <ele>274.799987793</ele>
        <time>2015-07-17T09:52:00.9Z</time>
      </trkpt>
      <trkpt lat="45.98444" lon="4.98018">
        <ele>274.5</ele>
        <time>2015-07-17T09:52:09.9Z</time>
      </trkpt>
      <trkpt lat="45.98441" lon="4.97974">
        <ele>275.799987793</ele>
        <time>2015-07-17T09:52:14.9Z</time>
      </trkpt>
      <trkpt lat="45.98443" lon="4.97949">
        <ele>277</ele>
        <time>2015-07-17T09:52:17.902Z</time>
      </trkpt>
      <trkpt lat="45.98448" lon="4.97919">
        <ele>276.899993896</ele>
        <time>2015-07-17T09:52:21.902Z</time>
      </trkpt>
      <trkpt lat="45.98445" lon="4.97901">
        <ele>277.200012207</ele>
        <time>2015-07-17T09:52:24.901Z</time>
      </trkpt>
      <trkpt lat="45.98437" lon="4.97896">
        <ele>277.5</ele>
        <time>2015-07-17T09:52:26.902Z</time>
      </trkpt>
      <trkpt lat="45.98412" lon="4.979">
        <ele>277.799987793</ele>
        <time>2015-07-17T09:52:31.904Z</time>
      </trkpt>
      <trkpt lat="45.98395" lon="4.97895">
        <ele>277.5</ele>
        <time>2015-07-17T09:52:34.902Z</time>
      </trkpt>
      <trkpt lat="45.98382" lon="4.97883">
        <ele>277.399993896</ele>
        <time>2015-07-17T09:52:37.903Z</time>
      </trkpt>
      <trkpt lat="45.98372" lon="4.97866">
        <ele>277.600006104</ele>
        <time>2015-07-17T09:52:40.9Z</time>
      </trkpt>
      <trkpt lat="45.98358" lon="4.97832">
        <ele>278.799987793</ele>
        <time>2015-07-17T09:52:46.902Z</time>
      </trkpt>
      <trkpt lat="45.98346" lon="4.97785">
        <ele>281.200012207</ele>
        <time>2015-07-17T09:52:55.9Z</time>
      </trkpt>
      <trkpt lat="45.98312" lon="4.97693">
        <ele>285.700012207</ele>
        <time>2015-07-17T09:53:13.901Z</time>
      </trkpt>
      <trkpt lat="45.98301" lon="4.9767">
        <ele>287.200012207</ele>
        <time>2015-07-17T09:53:18.9Z</time>
      </trkpt>
      <trkpt lat="45.9828" lon="4.97608">
        <ele>289.200012207</ele>
        <time>2015-07-17T09:53:30.9Z</time>
      </trkpt>
      <trkpt lat="45.98264" lon="4.97535">
        <ele>290.100006104</ele>
        <time>2015-07-17T09:53:42.902Z</time>
      </trkpt>
      <trkpt lat="45.98215" lon="4.97453">
        <ele>287.100006104</ele>
        <time>2015-07-17T09:53:57.906Z</time>
      </trkpt>
      <trkpt lat="45.98201" lon="4.97416">
        <ele>287.700012207</ele>
        <time>2015-07-17T09:54:02.9Z</time>
      </trkpt>
      <trkpt lat="45.98173" lon="4.97317">
        <ele>286.399993896</ele>
        <time>2015-07-17T09:54:15.9Z</time>
      </trkpt>
      <trkpt lat="45.98171" lon="4.97303">
        <ele>286.200012207</ele>
        <time>2015-07-17T09:54:17.907Z</time>
      </trkpt>
      <trkpt lat="45.98149" lon="4.97226">
        <ele>284.899993896</ele>
        <time>2015-07-17T09:54:27.902Z</time>
      </trkpt>
      <trkpt lat="45.98137" lon="4.97177">
        <ele>285.600006104</ele>
        <time>2015-07-17T09:54:33.901Z</time>
      </trkpt>
      <trkpt lat="45.98101" lon="4.97065">
        <ele>284.200012207</ele>
        <time>2015-07-17T09:54:47.903Z</time>
      </trkpt>
      <trkpt lat="45.9804" lon="4.96852">
        <ele>281.899993896</ele>
        <time>2015-07-17T09:55:13.9Z</time>
      </trkpt>
      <trkpt lat="45.98016" lon="4.96787">
        <ele>280.5</ele>
        <time>2015-07-17T09:55:22.902Z</time>
      </trkpt>
      <trkpt lat="45.9795" lon="4.96643">
        <ele>280.200012207</ele>
        <time>2015-07-17T09:55:43.906Z</time>
      </trkpt>
      <trkpt lat="45.97926" lon="4.96597">
        <ele>279.700012207</ele>
        <time>2015-07-17T09:55:50.916Z</time>
      </trkpt>
      <trkpt lat="45.97895" lon="4.96527">
        <ele>279.899993896</ele>
        <time>2015-07-17T09:56:00.901Z</time>
      </trkpt>
      <trkpt lat="45.9786" lon="4.96458">
        <ele>279.100006104</ele>
        <time>2015-07-17T09:56:09.899Z</time>
      </trkpt>
      <trkpt lat="45.97797" lon="4.96319">
        <ele>279.700012207</ele>
        <time>2015-07-17T09:56:27.9Z</time>
      </trkpt>
      <trkpt lat="45.97774" lon="4.96277">
        <ele>281.700012207</ele>
        <time>2015-07-17T09:56:33.914Z</time>
      </trkpt>
      <trkpt lat="45.97434" lon="4.95564">
        <ele>287.100006104</ele>
        <time>2015-07-17T09:58:22.899Z</time>
      </trkpt>
      <trkpt lat="45.97418" lon="4.95535">
        <ele>286.799987793</ele>
        <time>2015-07-17T09:58:27.901Z</time>
      </trkpt>
      <trkpt lat="45.97387" lon="4.95467">
        <ele>288.799987793</ele>
        <time>2015-07-17T09:58:38.898Z</time>
      </trkpt>
      <trkpt lat="45.97263" lon="4.95217">
        <ele>286.899993896</ele>
        <time>2015-07-17T09:59:17.9Z</time>
      </trkpt>
      <trkpt lat="45.97201" lon="4.95066">
        <ele>287.100006104</ele>
        <time>2015-07-17T09:59:40.899Z</time>
      </trkpt>
      <trkpt lat="45.97081" lon="4.94732">
        <ele>287.799987793</ele>
        <time>2015-07-17T10:00:27.898Z</time>
      </trkpt>
      <trkpt lat="45.97077" lon="4.94726">
        <ele>287.899993896</ele>
        <time>2015-07-17T10:00:28.902Z</time>
      </trkpt>
      <trkpt lat="45.97035" lon="4.94616">
        <ele>288</ele>
        <time>2015-07-17T10:00:43.898Z</time>
      </trkpt>
      <trkpt lat="45.96952" lon="4.94378">
        <ele>287.5</ele>
        <time>2015-07-17T10:01:14.898Z</time>
      </trkpt>
      <trkpt lat="45.96855" lon="4.94117">
        <ele>287.899993896</ele>
        <time>2015-07-17T10:01:47.902Z</time>
      </trkpt>
      <trkpt lat="45.96822" lon="4.9402">
        <ele>290.100006104</ele>
        <time>2015-07-17T10:02:00.898Z</time>
      </trkpt>
      <trkpt lat="45.96799" lon="4.93981">
        <ele>290.600006104</ele>
        <time>2015-07-17T10:02:06.9Z</time>
      </trkpt>
      <trkpt lat="45.96692" lon="4.93842">
        <ele>287.799987793</ele>
        <time>2015-07-17T10:02:33.934Z</time>
      </trkpt>
      <trkpt lat="45.96685" lon="4.93825">
        <ele>287.799987793</ele>
        <time>2015-07-17T10:02:36.901Z</time>
      </trkpt>
      <trkpt lat="45.96678" lon="4.93802">
        <ele>287.600006104</ele>
        <time>2015-07-17T10:02:40.897Z</time>
      </trkpt>
      <trkpt lat="45.96638" lon="4.93744">
        <ele>287.299987793</ele>
        <time>2015-07-17T10:02:51.897Z</time>
      </trkpt>
      <trkpt lat="45.96593" lon="4.93701">
        <ele>288.100006104</ele>
        <time>2015-07-17T10:03:00.912Z</time>
      </trkpt>
      <trkpt lat="45.96419" lon="4.93456">
        <ele>287.399993896</ele>
        <time>2015-07-17T10:03:43.932Z</time>
      </trkpt>
      <trkpt lat="45.96387" lon="4.93428">
        <ele>288.200012207</ele>
        <time>2015-07-17T10:03:50.897Z</time>
      </trkpt>
      <trkpt lat="45.96266" lon="4.93355">
        <ele>287.600006104</ele>
        <time>2015-07-17T10:04:13.898Z</time>
      </trkpt>
      <trkpt lat="45.96236" lon="4.93332">
        <ele>286.799987793</ele>
        <time>2015-07-17T10:04:19.898Z</time>
      </trkpt>
      <trkpt lat="45.96219" lon="4.9331">
        <ele>286.299987793</ele>
        <time>2015-07-17T10:04:23.9Z</time>
      </trkpt>
      <trkpt lat="45.96202" lon="4.93278">
        <ele>286.600006104</ele>
        <time>2015-07-17T10:04:28.897Z</time>
      </trkpt>
      <trkpt lat="45.9617" lon="4.93178">
        <ele>285.5</ele>
        <time>2015-07-17T10:04:41.9Z</time>
      </trkpt>
      <trkpt lat="45.96159" lon="4.93135">
        <ele>285.600006104</ele>
        <time>2015-07-17T10:04:46.899Z</time>
      </trkpt>
      <trkpt lat="45.96131" lon="4.93047">
        <ele>284.899993896</ele>
        <time>2015-07-17T10:04:56.937Z</time>
      </trkpt>
      <trkpt lat="45.9611" lon="4.92967">
        <ele>284.100006104</ele>
        <time>2015-07-17T10:05:06.899Z</time>
      </trkpt>
      <trkpt lat="45.96024" lon="4.92682">
        <ele>285.899993896</ele>
        <time>2015-07-17T10:05:41.899Z</time>
      </trkpt>
      <trkpt lat="45.95989" lon="4.92541">
        <ele>288.100006104</ele>
        <time>2015-07-17T10:06:00.891Z</time>
      </trkpt>
      <trkpt lat="45.95948" lon="4.92343">
        <ele>287.299987793</ele>
        <time>2015-07-17T10:06:25.898Z</time>
      </trkpt>
      <trkpt lat="45.95935" lon="4.92266">
        <ele>288.299987793</ele>
        <time>2015-07-17T10:06:35.907Z</time>
      </trkpt>
      <trkpt lat="45.95934" lon="4.92252">
        <ele>287.899993896</ele>
        <time>2015-07-17T10:06:37.897Z</time>
      </trkpt>
      <trkpt lat="45.95872" lon="4.919">
        <ele>291.200012207</ele>
        <time>2015-07-17T10:07:22.913Z</time>
      </trkpt>
      <trkpt lat="45.95841" lon="4.91741">
        <ele>293.5</ele>
        <time>2015-07-17T10:07:44.9Z</time>
      </trkpt>
      <trkpt lat="45.95837" lon="4.91733">
        <ele>294.200012207</ele>
        <time>2015-07-17T10:07:47.901Z</time>
      </trkpt>
      <trkpt lat="45.95832" lon="4.91736">
        <ele>294.399993896</ele>
        <time>2015-07-17T10:07:48.897Z</time>
      </trkpt>
      <trkpt lat="45.95784" lon="4.91807">
        <ele>295.600006104</ele>
        <time>2015-07-17T10:08:00.9Z</time>
      </trkpt>
      <trkpt lat="45.95759" lon="4.91855">
        <ele>294.399993896</ele>
        <time>2015-07-17T10:08:07.896Z</time>
      </trkpt>
      <trkpt lat="45.95726" lon="4.91902">
        <ele>291.799987793</ele>
        <time>2015-07-17T10:08:15.896Z</time>
      </trkpt>
      <trkpt lat="45.95679" lon="4.91996">
        <ele>289.299987793</ele>
        <time>2015-07-17T10:08:30.9Z</time>
      </trkpt>
      <trkpt lat="45.9567" lon="4.92004">
        <ele>289.100006104</ele>
        <time>2015-07-17T10:08:32.895Z</time>
      </trkpt>
      <trkpt lat="45.95661" lon="4.92004">
        <ele>289</ele>
        <time>2015-07-17T10:08:34.9Z</time>
      </trkpt>
      <trkpt lat="45.95634" lon="4.91966">
        <ele>288.5</ele>
        <time>2015-07-17T10:08:42.901Z</time>
      </trkpt>
      <trkpt lat="45.95595" lon="4.91926">
        <ele>287.299987793</ele>
        <time>2015-07-17T10:08:52.91Z</time>
      </trkpt>
      <trkpt lat="45.9552" lon="4.91873">
        <ele>284.200012207</ele>
        <time>2015-07-17T10:09:06.897Z</time>
      </trkpt>
      <trkpt lat="45.95471" lon="4.91832">
        <ele>283.5</ele>
        <time>2015-07-17T10:09:15.9Z</time>
      </trkpt>
      <trkpt lat="45.95454" lon="4.91813">
        <ele>282.700012207</ele>
        <time>2015-07-17T10:09:19.898Z</time>
      </trkpt>
      <trkpt lat="45.95425" lon="4.91754">
        <ele>282.600006104</ele>
        <time>2015-07-17T10:09:28.896Z</time>
      </trkpt>
      <trkpt lat="45.95407" lon="4.91699">
        <ele>284.200012207</ele>
        <time>2015-07-17T10:09:39.896Z</time>
      </trkpt>
      <trkpt lat="45.95386" lon="4.91621">
        <ele>283.200012207</ele>
        <time>2015-07-17T10:10:05.899Z</time>
      </trkpt>
      <trkpt lat="45.95366" lon="4.91564">
        <ele>283.600006104</ele>
        <time>2015-07-17T10:10:22.939Z</time>
      </trkpt>
      <trkpt lat="45.95365" lon="4.9155">
        <ele>283.100006104</ele>
        <time>2015-07-17T10:10:26.896Z</time>
      </trkpt>
      <trkpt lat="45.95351" lon="4.91497">
        <ele>286.700012207</ele>
        <time>2015-07-17T10:10:41.899Z</time>
      </trkpt>
      <trkpt lat="45.95344" lon="4.91453">
        <ele>291</ele>
        <time>2015-07-17T10:10:56.9Z</time>
      </trkpt>
      <trkpt lat="45.95339" lon="4.91438">
        <ele>293.399993896</ele>
        <time>2015-07-17T10:11:03.903Z</time>
      </trkpt>
      <trkpt lat="45.9533" lon="4.91371">
        <ele>297.399993896</ele>
        <time>2015-07-17T10:11:26.893Z</time>
      </trkpt>
      <trkpt lat="45.95312" lon="4.91299">
        <ele>298.600006104</ele>
        <time>2015-07-17T10:11:49.898Z</time>
      </trkpt>
      <trkpt lat="45.95309" lon="4.91275">
        <ele>299.899993896</ele>
        <time>2015-07-17T10:11:58.942Z</time>
      </trkpt>
      <trkpt lat="45.95302" lon="4.91258">
        <ele>301</ele>
        <time>2015-07-17T10:12:03.896Z</time>
      </trkpt>
      <trkpt lat="45.95298" lon="4.91234">
        <ele>302.5</ele>
        <time>2015-07-17T10:12:11.901Z</time>
      </trkpt>
      <trkpt lat="45.95274" lon="4.91184">
        <ele>303.700012207</ele>
        <time>2015-07-17T10:12:30.897Z</time>
      </trkpt>
      <trkpt lat="45.95253" lon="4.91148">
        <ele>304.299987793</ele>
        <time>2015-07-17T10:12:43.896Z</time>
      </trkpt>
      <trkpt lat="45.95249" lon="4.91135">
        <ele>305.200012207</ele>
        <time>2015-07-17T10:12:50.938Z</time>
      </trkpt>
      <trkpt lat="45.95216" lon="4.91084">
        <ele>303.600006104</ele>
        <time>2015-07-17T10:13:13.9Z</time>
      </trkpt>
      <trkpt lat="45.95206" lon="4.91082">
        <ele>302.899993896</ele>
        <time>2015-07-17T10:13:18.906Z</time>
      </trkpt>
      <trkpt lat="45.95188" lon="4.91072">
        <ele>302.100006104</ele>
        <time>2015-07-17T10:13:25.903Z</time>
      </trkpt>
      <trkpt lat="45.95174" lon="4.91046">
        <ele>298.200012207</ele>
        <time>2015-07-17T10:13:36.897Z</time>
      </trkpt>
      <trkpt lat="45.9516" lon="4.90983">
        <ele>290.399993896</ele>
        <time>2015-07-17T10:13:53.899Z</time>
      </trkpt>
      <trkpt lat="45.9516" lon="4.90948">
        <ele>290.700012207</ele>
        <time>2015-07-17T10:14:46.896Z</time>
      </trkpt>
      <trkpt lat="45.9517" lon="4.90948">
        <ele>291</ele>
        <time>2015-07-17T10:15:00.901Z</time>
      </trkpt>
      <trkpt lat="45.95177" lon="4.90905">
        <ele>291</ele>
        <time>2015-07-17T10:18:16.895Z</time>
      </trkpt>
      <trkpt lat="45.95183" lon="4.90826">
        <ele>292.200012207</ele>
        <time>2015-07-17T10:18:28.896Z</time>
      </trkpt>
      <trkpt lat="45.95176" lon="4.90784">
        <ele>294</ele>
        <time>2015-07-17T10:18:34.897Z</time>
      </trkpt>
      <trkpt lat="45.95174" lon="4.90748">
        <ele>294.899993896</ele>
        <time>2015-07-17T10:18:39.899Z</time>
      </trkpt>
      <trkpt lat="45.95178" lon="4.90692">
        <ele>294.299987793</ele>
        <time>2015-07-17T10:18:46.897Z</time>
      </trkpt>
      <trkpt lat="45.95181" lon="4.90592">
        <ele>292.299987793</ele>
        <time>2015-07-17T10:18:57.899Z</time>
      </trkpt>
      <trkpt lat="45.95186" lon="4.90535">
        <ele>290.600006104</ele>
        <time>2015-07-17T10:19:03.913Z</time>
      </trkpt>
      <trkpt lat="45.95191" lon="4.90411">
        <ele>287.700012207</ele>
        <time>2015-07-17T10:19:16.895Z</time>
      </trkpt>
      <trkpt lat="45.95212" lon="4.90267">
        <ele>287.200012207</ele>
        <time>2015-07-17T10:19:31.9Z</time>
      </trkpt>
      <trkpt lat="45.95213" lon="4.90246">
        <ele>287.299987793</ele>
        <time>2015-07-17T10:19:33.895Z</time>
      </trkpt>
      <trkpt lat="45.95207" lon="4.90188">
        <ele>286.399993896</ele>
        <time>2015-07-17T10:19:39.897Z</time>
      </trkpt>
      <trkpt lat="45.95201" lon="4.90173">
        <ele>286.399993896</ele>
        <time>2015-07-17T10:19:41.898Z</time>
      </trkpt>
      <trkpt lat="45.95191" lon="4.90165">
        <ele>286.299987793</ele>
        <time>2015-07-17T10:19:43.899Z</time>
      </trkpt>
      <trkpt lat="45.95157" lon="4.9017">
        <ele>285.600006104</ele>
        <time>2015-07-17T10:19:49.896Z</time>
      </trkpt>
      <trkpt lat="45.95132" lon="4.90162">
        <ele>284.700012207</ele>
        <time>2015-07-17T10:19:53.902Z</time>
      </trkpt>
      <trkpt lat="45.95097" lon="4.90135">
        <ele>283.899993896</ele>
        <time>2015-07-17T10:19:59.898Z</time>
      </trkpt>
      <trkpt lat="45.95063" lon="4.90094">
        <ele>281.299987793</ele>
        <time>2015-07-17T10:20:06.921Z</time>
      </trkpt>
      <trkpt lat="45.95026" lon="4.90043">
        <ele>280.100006104</ele>
        <time>2015-07-17T10:20:14.896Z</time>
      </trkpt>
      <trkpt lat="45.94976" lon="4.89951">
        <ele>281.100006104</ele>
        <time>2015-07-17T10:20:26.895Z</time>
      </trkpt>
      <trkpt lat="45.94937" lon="4.899">
        <ele>279.899993896</ele>
        <time>2015-07-17T10:20:35.898Z</time>
      </trkpt>
      <trkpt lat="45.94927" lon="4.89879">
        <ele>279.399993896</ele>
        <time>2015-07-17T10:20:38.895Z</time>
      </trkpt>
      <trkpt lat="45.94919" lon="4.89834">
        <ele>280</ele>
        <time>2015-07-17T10:20:43.896Z</time>
      </trkpt>
      <trkpt lat="45.9492" lon="4.89806">
        <ele>282.100006104</ele>
        <time>2015-07-17T10:20:46.895Z</time>
      </trkpt>
      <trkpt lat="45.94924" lon="4.89787">
        <ele>282.5</ele>
        <time>2015-07-17T10:20:48.895Z</time>
      </trkpt>
      <trkpt lat="45.94993" lon="4.89553">
        <ele>283.100006104</ele>
        <time>2015-07-17T10:21:12.887Z</time>
      </trkpt>
      <trkpt lat="45.95001" lon="4.89535">
        <ele>283.100006104</ele>
        <time>2015-07-17T10:21:14.895Z</time>
      </trkpt>
      <trkpt lat="45.95006" lon="4.89528">
        <ele>283.100006104</ele>
        <time>2015-07-17T10:21:15.895Z</time>
      </trkpt>
      <trkpt lat="45.95021" lon="4.89519">
        <ele>283.100006104</ele>
        <time>2015-07-17T10:21:17.898Z</time>
      </trkpt>
      <trkpt lat="45.95067" lon="4.89507">
        <ele>284.600006104</ele>
        <time>2015-07-17T10:21:23.898Z</time>
      </trkpt>
      <trkpt lat="45.95079" lon="4.89496">
        <ele>285.299987793</ele>
        <time>2015-07-17T10:21:25.896Z</time>
      </trkpt>
      <trkpt lat="45.95083" lon="4.89476">
        <ele>286.200012207</ele>
        <time>2015-07-17T10:21:27.91Z</time>
      </trkpt>
      <trkpt lat="45.95069" lon="4.89394">
        <ele>284.399993896</ele>
        <time>2015-07-17T10:21:35.902Z</time>
      </trkpt>
      <trkpt lat="45.95068" lon="4.89344">
        <ele>283.600006104</ele>
        <time>2015-07-17T10:21:40.895Z</time>
      </trkpt>
      <trkpt lat="45.95073" lon="4.89277">
        <ele>284.5</ele>
        <time>2015-07-17T10:21:47.9Z</time>
      </trkpt>
      <trkpt lat="45.95075" lon="4.89175">
        <ele>287.299987793</ele>
        <time>2015-07-17T10:21:58.898Z</time>
      </trkpt>
      <trkpt lat="45.95091" lon="4.89022">
        <ele>284.5</ele>
        <time>2015-07-17T10:22:14.895Z</time>
      </trkpt>
      <trkpt lat="45.95091" lon="4.88978">
        <ele>284.200012207</ele>
        <time>2015-07-17T10:22:19.895Z</time>
      </trkpt>
      <trkpt lat="45.95105" lon="4.88804">
        <ele>285.200012207</ele>
        <time>2015-07-17T10:22:38.895Z</time>
      </trkpt>
      <trkpt lat="45.95106" lon="4.88755">
        <ele>284.600006104</ele>
        <time>2015-07-17T10:22:44.894Z</time>
      </trkpt>
      <trkpt lat="45.95104" lon="4.88719">
        <ele>285</ele>
        <time>2015-07-17T10:22:49.897Z</time>
      </trkpt>
      <trkpt lat="45.95104" lon="4.88657">
        <ele>284.5</ele>
        <time>2015-07-17T10:22:58.895Z</time>
      </trkpt>
      <trkpt lat="45.95114" lon="4.88565">
        <ele>289.200012207</ele>
        <time>2015-07-17T10:23:12.897Z</time>
      </trkpt>
      <trkpt lat="45.95112" lon="4.88544">
        <ele>288.5</ele>
        <time>2015-07-17T10:23:15.897Z</time>
      </trkpt>
      <trkpt lat="45.95098" lon="4.88486">
        <ele>288.100006104</ele>
        <time>2015-07-17T10:23:24.921Z</time>
      </trkpt>
      <trkpt lat="45.95097" lon="4.88456">
        <ele>286.799987793</ele>
        <time>2015-07-17T10:23:28.896Z</time>
      </trkpt>
      <trkpt lat="45.95113" lon="4.88341">
        <ele>285.399993896</ele>
        <time>2015-07-17T10:23:44.895Z</time>
      </trkpt>
      <trkpt lat="45.95123" lon="4.88297">
        <ele>284</ele>
        <time>2015-07-17T10:23:49.898Z</time>
      </trkpt>
      <trkpt lat="45.95126" lon="4.8827">
        <ele>283.600006104</ele>
        <time>2015-07-17T10:23:52.897Z</time>
      </trkpt>
      <trkpt lat="45.95125" lon="4.88223">
        <ele>282.899993896</ele>
        <time>2015-07-17T10:23:58.897Z</time>
      </trkpt>
      <trkpt lat="45.95133" lon="4.882">
        <ele>282.200012207</ele>
        <time>2015-07-17T10:24:01.899Z</time>
      </trkpt>
      <trkpt lat="45.95147" lon="4.88182">
        <ele>282.399993896</ele>
        <time>2015-07-17T10:24:04.894Z</time>
      </trkpt>
      <trkpt lat="45.95164" lon="4.88172">
        <ele>283.200012207</ele>
        <time>2015-07-17T10:24:07.9Z</time>
      </trkpt>
      <trkpt lat="45.95168" lon="4.88165">
        <ele>283</ele>
        <time>2015-07-17T10:24:08.897Z</time>
      </trkpt>
      <trkpt lat="45.95191" lon="4.88071">
        <ele>281.100006104</ele>
        <time>2015-07-17T10:24:18.909Z</time>
      </trkpt>
      <trkpt lat="45.95204" lon="4.88037">
        <ele>280.799987793</ele>
        <time>2015-07-17T10:24:22.896Z</time>
      </trkpt>
      <trkpt lat="45.95224" lon="4.88003">
        <ele>280.5</ele>
        <time>2015-07-17T10:24:27.895Z</time>
      </trkpt>
      <trkpt lat="45.95248" lon="4.87972">
        <ele>279.399993896</ele>
        <time>2015-07-17T10:24:32.895Z</time>
      </trkpt>
      <trkpt lat="45.95256" lon="4.87957">
        <ele>278.799987793</ele>
        <time>2015-07-17T10:24:34.913Z</time>
      </trkpt>
      <trkpt lat="45.95261" lon="4.87939">
        <ele>277.899993896</ele>
        <time>2015-07-17T10:24:36.895Z</time>
      </trkpt>
      <trkpt lat="45.95263" lon="4.87919">
        <ele>277.5</ele>
        <time>2015-07-17T10:24:38.894Z</time>
      </trkpt>
      <trkpt lat="45.95242" lon="4.87797">
        <ele>275.299987793</ele>
        <time>2015-07-17T10:24:51.894Z</time>
      </trkpt>
      <trkpt lat="45.95227" lon="4.87731">
        <ele>272.299987793</ele>
        <time>2015-07-17T10:24:58.896Z</time>
      </trkpt>
      <trkpt lat="45.95209" lon="4.876">
        <ele>269</ele>
        <time>2015-07-17T10:25:10.894Z</time>
      </trkpt>
      <trkpt lat="45.95203" lon="4.87536">
        <ele>266.200012207</ele>
        <time>2015-07-17T10:25:15.894Z</time>
      </trkpt>
      <trkpt lat="45.95152" lon="4.87326">
        <ele>262.100006104</ele>
        <time>2015-07-17T10:25:35.896Z</time>
      </trkpt>
      <trkpt lat="45.95104" lon="4.87097">
        <ele>268.600006104</ele>
        <time>2015-07-17T10:26:04.894Z</time>
      </trkpt>
      <trkpt lat="45.95081" lon="4.87039">
        <ele>269.399993896</ele>
        <time>2015-07-17T10:26:13.89Z</time>
      </trkpt>
      <trkpt lat="45.95057" lon="4.86993">
        <ele>270.5</ele>
        <time>2015-07-17T10:26:20.894Z</time>
      </trkpt>
      <trkpt lat="45.95036" lon="4.86934">
        <ele>269.799987793</ele>
        <time>2015-07-17T10:26:28.894Z</time>
      </trkpt>
      <trkpt lat="45.95017" lon="4.86868">
        <ele>271.799987793</ele>
        <time>2015-07-17T10:26:36.95Z</time>
      </trkpt>
      <trkpt lat="45.94993" lon="4.86806">
        <ele>274.200012207</ele>
        <time>2015-07-17T10:26:44.894Z</time>
      </trkpt>
      <trkpt lat="45.94957" lon="4.86736">
        <ele>275.299987793</ele>
        <time>2015-07-17T10:26:54.894Z</time>
      </trkpt>
      <trkpt lat="45.94947" lon="4.86705">
        <ele>274.600006104</ele>
        <time>2015-07-17T10:26:58.894Z</time>
      </trkpt>
      <trkpt lat="45.94943" lon="4.86673">
        <ele>274.600006104</ele>
        <time>2015-07-17T10:27:02.9Z</time>
      </trkpt>
      <trkpt lat="45.94945" lon="4.86657">
        <ele>275.700012207</ele>
        <time>2015-07-17T10:27:04.896Z</time>
      </trkpt>
      <trkpt lat="45.9495" lon="4.86641">
        <ele>276.5</ele>
        <time>2015-07-17T10:27:06.894Z</time>
      </trkpt>
      <trkpt lat="45.94959" lon="4.86629">
        <ele>277.5</ele>
        <time>2015-07-17T10:27:08.896Z</time>
      </trkpt>
      <trkpt lat="45.94977" lon="4.86618">
        <ele>277.100006104</ele>
        <time>2015-07-17T10:27:11.899Z</time>
      </trkpt>
      <trkpt lat="45.95049" lon="4.86607">
        <ele>280.100006104</ele>
        <time>2015-07-17T10:27:21.896Z</time>
      </trkpt>
      <trkpt lat="45.95082" lon="4.86596">
        <ele>278.899993896</ele>
        <time>2015-07-17T10:27:25.895Z</time>
      </trkpt>
      <trkpt lat="45.95125" lon="4.86586">
        <ele>276.5</ele>
        <time>2015-07-17T10:27:30.893Z</time>
      </trkpt>
      <trkpt lat="45.95187" lon="4.86578">
        <ele>273.200012207</ele>
        <time>2015-07-17T10:27:37.895Z</time>
      </trkpt>
      <trkpt lat="45.95245" lon="4.86584">
        <ele>268.600006104</ele>
        <time>2015-07-17T10:27:44.894Z</time>
      </trkpt>
      <trkpt lat="45.9526" lon="4.86582">
        <ele>267.799987793</ele>
        <time>2015-07-17T10:27:47.898Z</time>
      </trkpt>
      <trkpt lat="45.95265" lon="4.86574">
        <ele>267.799987793</ele>
        <time>2015-07-17T10:27:49.897Z</time>
      </trkpt>
      <trkpt lat="45.95265" lon="4.86568">
        <ele>267.299987793</ele>
        <time>2015-07-17T10:27:50.937Z</time>
      </trkpt>
      <trkpt lat="45.95261" lon="4.86557">
        <ele>266.899993896</ele>
        <time>2015-07-17T10:27:53.001Z</time>
      </trkpt>
      <trkpt lat="45.95115" lon="4.86382">
        <ele>264.600006104</ele>
        <time>2015-07-17T10:28:30.894Z</time>
      </trkpt>
      <trkpt lat="45.95017" lon="4.86254">
        <ele>269.399993896</ele>
        <time>2015-07-17T10:28:59.896Z</time>
      </trkpt>
      <trkpt lat="45.94939" lon="4.8616">
        <ele>274.700012207</ele>
        <time>2015-07-17T10:29:24.894Z</time>
      </trkpt>
      <trkpt lat="45.94922" lon="4.86135">
        <ele>274</ele>
        <time>2015-07-17T10:29:30.894Z</time>
      </trkpt>
      <trkpt lat="45.949" lon="4.86092">
        <ele>273</ele>
        <time>2015-07-17T10:29:39.894Z</time>
      </trkpt>
      <trkpt lat="45.94825" lon="4.85819">
        <ele>275.100006104</ele>
        <time>2015-07-17T10:30:23.896Z</time>
      </trkpt>
      <trkpt lat="45.94791" lon="4.85681">
        <ele>281.5</ele>
        <time>2015-07-17T10:30:43.895Z</time>
      </trkpt>
      <trkpt lat="45.94762" lon="4.85555">
        <ele>279.600006104</ele>
        <time>2015-07-17T10:30:58.893Z</time>
      </trkpt>
      <trkpt lat="45.94731" lon="4.85305">
        <ele>272.700012207</ele>
        <time>2015-07-17T10:31:19.895Z</time>
      </trkpt>
      <trkpt lat="45.94723" lon="4.85217">
        <ele>271.200012207</ele>
        <time>2015-07-17T10:31:27.897Z</time>
      </trkpt>
      <trkpt lat="45.94709" lon="4.85101">
        <ele>267.799987793</ele>
        <time>2015-07-17T10:31:38.893Z</time>
      </trkpt>
      <trkpt lat="45.94681" lon="4.84838">
        <ele>270.899993896</ele>
        <time>2015-07-17T10:32:04.893Z</time>
      </trkpt>
      <trkpt lat="45.94671" lon="4.84688">
        <ele>268.899993896</ele>
        <time>2015-07-17T10:32:20.893Z</time>
      </trkpt>
      <trkpt lat="45.94668" lon="4.84596">
        <ele>271.600006104</ele>
        <time>2015-07-17T10:32:29.895Z</time>
      </trkpt>
      <trkpt lat="45.9466" lon="4.84481">
        <ele>273</ele>
        <time>2015-07-17T10:32:41.895Z</time>
      </trkpt>
      <trkpt lat="45.9464" lon="4.84313">
        <ele>269.899993896</ele>
        <time>2015-07-17T10:33:00.893Z</time>
      </trkpt>
      <trkpt lat="45.94608" lon="4.84091">
        <ele>265.200012207</ele>
        <time>2015-07-17T10:33:24.894Z</time>
      </trkpt>
      <trkpt lat="45.94592" lon="4.84004">
        <ele>265.399993896</ele>
        <time>2015-07-17T10:33:34.941Z</time>
      </trkpt>
      <trkpt lat="45.94568" lon="4.8384">
        <ele>259.799987793</ele>
        <time>2015-07-17T10:33:50.891Z</time>
      </trkpt>
      <trkpt lat="45.94524" lon="4.83589">
        <ele>258.5</ele>
        <time>2015-07-17T10:34:14.898Z</time>
      </trkpt>
      <trkpt lat="45.94508" lon="4.83546">
        <ele>259.700012207</ele>
        <time>2015-07-17T10:34:19.897Z</time>
      </trkpt>
      <trkpt lat="45.94442" lon="4.83428">
        <ele>263.100006104</ele>
        <time>2015-07-17T10:34:36.891Z</time>
      </trkpt>
      <trkpt lat="45.94408" lon="4.83353">
        <ele>263.700012207</ele>
        <time>2015-07-17T10:34:46.891Z</time>
      </trkpt>
      <trkpt lat="45.94317" lon="4.83094">
        <ele>267.600006104</ele>
        <time>2015-07-17T10:35:20.922Z</time>
      </trkpt>
      <trkpt lat="45.94299" lon="4.83024">
        <ele>268.299987793</ele>
        <time>2015-07-17T10:35:29.912Z</time>
      </trkpt>
      <trkpt lat="45.94291" lon="4.82982">
        <ele>268.799987793</ele>
        <time>2015-07-17T10:35:34.892Z</time>
      </trkpt>
      <trkpt lat="45.94281" lon="4.82948">
        <ele>269.100006104</ele>
        <time>2015-07-17T10:35:39.888Z</time>
      </trkpt>
      <trkpt lat="45.94281" lon="4.82934">
        <ele>268.799987793</ele>
        <time>2015-07-17T10:35:41.901Z</time>
      </trkpt>
      <trkpt lat="45.94288" lon="4.82887">
        <ele>269.100006104</ele>
        <time>2015-07-17T10:35:47.897Z</time>
      </trkpt>
      <trkpt lat="45.94292" lon="4.82785">
        <ele>269.700012207</ele>
        <time>2015-07-17T10:35:58.925Z</time>
      </trkpt>
      <trkpt lat="45.94296" lon="4.8251">
        <ele>265.700012207</ele>
        <time>2015-07-17T10:36:26.894Z</time>
      </trkpt>
      <trkpt lat="45.94283" lon="4.82212">
        <ele>264.200012207</ele>
        <time>2015-07-17T10:36:55.893Z</time>
      </trkpt>
      <trkpt lat="45.94226" lon="4.81922">
        <ele>264.100006104</ele>
        <time>2015-07-17T10:37:25.893Z</time>
      </trkpt>
      <trkpt lat="45.94208" lon="4.81843">
        <ele>263.100006104</ele>
        <time>2015-07-17T10:37:33.893Z</time>
      </trkpt>
      <trkpt lat="45.94203" lon="4.81808">
        <ele>263</ele>
        <time>2015-07-17T10:37:37.91Z</time>
      </trkpt>
      <trkpt lat="45.94204" lon="4.8179">
        <ele>262.600006104</ele>
        <time>2015-07-17T10:37:39.894Z</time>
      </trkpt>
      <trkpt lat="45.9421" lon="4.81764">
        <ele>262.5</ele>
        <time>2015-07-17T10:37:42.895Z</time>
      </trkpt>
      <trkpt lat="45.94219" lon="4.81742">
        <ele>261.899993896</ele>
        <time>2015-07-17T10:37:45.896Z</time>
      </trkpt>
      <trkpt lat="45.94218" lon="4.81725">
        <ele>262</ele>
        <time>2015-07-17T10:37:47.897Z</time>
      </trkpt>
      <trkpt lat="45.94211" lon="4.81711">
        <ele>261</ele>
        <time>2015-07-17T10:37:49.893Z</time>
      </trkpt>
      <trkpt lat="45.94184" lon="4.81689">
        <ele>261.100006104</ele>
        <time>2015-07-17T10:37:54.895Z</time>
      </trkpt>
      <trkpt lat="45.9418" lon="4.81682">
        <ele>261</ele>
        <time>2015-07-17T10:37:55.897Z</time>
      </trkpt>
      <trkpt lat="45.94168" lon="4.81642">
        <ele>260.700012207</ele>
        <time>2015-07-17T10:37:59.897Z</time>
      </trkpt>
      <trkpt lat="45.94155" lon="4.81574">
        <ele>260.299987793</ele>
        <time>2015-07-17T10:38:05.931Z</time>
      </trkpt>
      <trkpt lat="45.94153" lon="4.81538">
        <ele>259.899993896</ele>
        <time>2015-07-17T10:38:08.892Z</time>
      </trkpt>
      <trkpt lat="45.94158" lon="4.81476">
        <ele>258.700012207</ele>
        <time>2015-07-17T10:38:13.893Z</time>
      </trkpt>
      <trkpt lat="45.9417" lon="4.81398">
        <ele>256.200012207</ele>
        <time>2015-07-17T10:38:19.893Z</time>
      </trkpt>
      <trkpt lat="45.94176" lon="4.8132">
        <ele>254.5</ele>
        <time>2015-07-17T10:38:25.911Z</time>
      </trkpt>
      <trkpt lat="45.94172" lon="4.81262">
        <ele>253.399993896</ele>
        <time>2015-07-17T10:38:29.897Z</time>
      </trkpt>
      <trkpt lat="45.94161" lon="4.81205">
        <ele>252.300003052</ele>
        <time>2015-07-17T10:38:33.896Z</time>
      </trkpt>
      <trkpt lat="45.94142" lon="4.81149">
        <ele>251.399993896</ele>
        <time>2015-07-17T10:38:37.897Z</time>
      </trkpt>
      <trkpt lat="45.94103" lon="4.81077">
        <ele>248.5</ele>
        <time>2015-07-17T10:38:43.895Z</time>
      </trkpt>
      <trkpt lat="45.94082" lon="4.81023">
        <ele>246.699996948</ele>
        <time>2015-07-17T10:38:47.899Z</time>
      </trkpt>
      <trkpt lat="45.94075" lon="4.80992">
        <ele>245.800003052</ele>
        <time>2015-07-17T10:38:49.895Z</time>
      </trkpt>
      <trkpt lat="45.94059" lon="4.80883">
        <ele>242.5</ele>
        <time>2015-07-17T10:38:56.895Z</time>
      </trkpt>
      <trkpt lat="45.94035" lon="4.80678">
        <ele>232.800003052</ele>
        <time>2015-07-17T10:39:09.892Z</time>
      </trkpt>
      <trkpt lat="45.94026" lon="4.80569">
        <ele>225.699996948</ele>
        <time>2015-07-17T10:39:16.897Z</time>
      </trkpt>
      <trkpt lat="45.94025" lon="4.80493">
        <ele>223</ele>
        <time>2015-07-17T10:39:21.907Z</time>
      </trkpt>
      <trkpt lat="45.9402" lon="4.8043">
        <ele>220.800003052</ele>
        <time>2015-07-17T10:39:25.893Z</time>
      </trkpt>
      <trkpt lat="45.94014" lon="4.80399">
        <ele>219.300003052</ele>
        <time>2015-07-17T10:39:27.892Z</time>
      </trkpt>
      <trkpt lat="45.93964" lon="4.80216">
        <ele>208.800003052</ele>
        <time>2015-07-17T10:39:39.894Z</time>
      </trkpt>
      <trkpt lat="45.93953" lon="4.80163">
        <ele>205.899993896</ele>
        <time>2015-07-17T10:39:43.893Z</time>
      </trkpt>
      <trkpt lat="45.93944" lon="4.80103">
        <ele>203.399993896</ele>
        <time>2015-07-17T10:39:48.892Z</time>
      </trkpt>
      <trkpt lat="45.93943" lon="4.80057">
        <ele>201.300003052</ele>
        <time>2015-07-17T10:39:52.892Z</time>
      </trkpt>
      <trkpt lat="45.93951" lon="4.79981">
        <ele>198.100006104</ele>
        <time>2015-07-17T10:39:59.894Z</time>
      </trkpt>
      <trkpt lat="45.93968" lon="4.79893">
        <ele>200.399993896</ele>
        <time>2015-07-17T10:40:07.896Z</time>
      </trkpt>
      <trkpt lat="45.93979" lon="4.79797">
        <ele>200.399993896</ele>
        <time>2015-07-17T10:40:16.896Z</time>
      </trkpt>
      <trkpt lat="45.93977" lon="4.79745">
        <ele>201.5</ele>
        <time>2015-07-17T10:40:21.915Z</time>
      </trkpt>
      <trkpt lat="45.93968" lon="4.79683">
        <ele>203.199996948</ele>
        <time>2015-07-17T10:40:27.895Z</time>
      </trkpt>
      <trkpt lat="45.93955" lon="4.79527">
        <ele>204.699996948</ele>
        <time>2015-07-17T10:40:42.898Z</time>
      </trkpt>
      <trkpt lat="45.93955" lon="4.79262">
        <ele>199.899993896</ele>
        <time>2015-07-17T10:41:04.891Z</time>
      </trkpt>
      <trkpt lat="45.93953" lon="4.79167">
        <ele>200.300003052</ele>
        <time>2015-07-17T10:41:12.891Z</time>
      </trkpt>
      <trkpt lat="45.93954" lon="4.79114">
        <ele>199.5</ele>
        <time>2015-07-17T10:41:16.891Z</time>
      </trkpt>
      <trkpt lat="45.93935" lon="4.78795">
        <ele>190.699996948</ele>
        <time>2015-07-17T10:41:42.897Z</time>
      </trkpt>
      <trkpt lat="45.93934" lon="4.78647">
        <ele>187.899993896</ele>
        <time>2015-07-17T10:41:57.895Z</time>
      </trkpt>
      <trkpt lat="45.93936" lon="4.78628">
        <ele>188.800003052</ele>
        <time>2015-07-17T10:41:59.899Z</time>
      </trkpt>
      <trkpt lat="45.93936" lon="4.78584">
        <ele>189.199996948</ele>
        <time>2015-07-17T10:42:04.894Z</time>
      </trkpt>
      <trkpt lat="45.93932" lon="4.7853">
        <ele>188.100006104</ele>
        <time>2015-07-17T10:42:13.894Z</time>
      </trkpt>
      <trkpt lat="45.93934" lon="4.78503">
        <ele>188.5</ele>
        <time>2015-07-17T10:42:18.892Z</time>
      </trkpt>
      <trkpt lat="45.93939" lon="4.78481">
        <ele>189.699996948</ele>
        <time>2015-07-17T10:42:22.892Z</time>
      </trkpt>
      <trkpt lat="45.93952" lon="4.78391">
        <ele>191.199996948</ele>
        <time>2015-07-17T10:42:37.882Z</time>
      </trkpt>
      <trkpt lat="45.93956" lon="4.78373">
        <ele>190.899993896</ele>
        <time>2015-07-17T10:42:40.892Z</time>
      </trkpt>
      <trkpt lat="45.93961" lon="4.78337">
        <ele>190.800003052</ele>
        <time>2015-07-17T10:42:47.895Z</time>
      </trkpt>
      <trkpt lat="45.93967" lon="4.78311">
        <ele>189.399993896</ele>
        <time>2015-07-17T10:42:52.895Z</time>
      </trkpt>
      <trkpt lat="45.93981" lon="4.78193">
        <ele>191.199996948</ele>
        <time>2015-07-17T10:43:15.9Z</time>
      </trkpt>
      <trkpt lat="45.93996" lon="4.78162">
        <ele>190.899993896</ele>
        <time>2015-07-17T10:43:22.897Z</time>
      </trkpt>
      <trkpt lat="45.93995" lon="4.78147">
        <ele>193.199996948</ele>
        <time>2015-07-17T10:43:25.9Z</time>
      </trkpt>
      <trkpt lat="45.94006" lon="4.78062">
        <ele>191.5</ele>
        <time>2015-07-17T10:43:38.9Z</time>
      </trkpt>
      <trkpt lat="45.94014" lon="4.78027">
        <ele>191.100006104</ele>
        <time>2015-07-17T10:43:43.897Z</time>
      </trkpt>
      <trkpt lat="45.94014" lon="4.7801">
        <ele>193.199996948</ele>
        <time>2015-07-17T10:43:45.91Z</time>
      </trkpt>
      <trkpt lat="45.94023" lon="4.7796">
        <ele>192.100006104</ele>
        <time>2015-07-17T10:43:51.967Z</time>
      </trkpt>
      <trkpt lat="45.9403" lon="4.77936">
        <ele>192.100006104</ele>
        <time>2015-07-17T10:43:54.896Z</time>
      </trkpt>
      <trkpt lat="45.94028" lon="4.77922">
        <ele>192.699996948</ele>
        <time>2015-07-17T10:43:56.911Z</time>
      </trkpt>
      <trkpt lat="45.9402" lon="4.77912">
        <ele>193.399993896</ele>
        <time>2015-07-17T10:43:59.898Z</time>
      </trkpt>
      <trkpt lat="45.94016" lon="4.77911">
        <ele>193.300003052</ele>
        <time>2015-07-17T10:44:00.898Z</time>
      </trkpt>
      <trkpt lat="45.93936" lon="4.77967">
        <ele>193.600006104</ele>
        <time>2015-07-17T10:44:09.892Z</time>
      </trkpt>
      <trkpt lat="45.93886" lon="4.78013">
        <ele>192.100006104</ele>
        <time>2015-07-17T10:44:17.897Z</time>
      </trkpt>
      <trkpt lat="45.93878" lon="4.78011">
        <ele>191.300003052</ele>
        <time>2015-07-17T10:44:20.896Z</time>
      </trkpt>
      <trkpt lat="45.93865" lon="4.77997">
        <ele>190.300003052</ele>
        <time>2015-07-17T10:44:24.892Z</time>
      </trkpt>
      <trkpt lat="45.9385" lon="4.77988">
        <ele>189.699996948</ele>
        <time>2015-07-17T10:44:27.893Z</time>
      </trkpt>
      <trkpt lat="45.9382" lon="4.77951">
        <ele>186.100006104</ele>
        <time>2015-07-17T10:44:34.896Z</time>
      </trkpt>
      <trkpt lat="45.93765" lon="4.77875">
        <ele>186.600006104</ele>
        <time>2015-07-17T10:44:48.893Z</time>
      </trkpt>
      <trkpt lat="45.93677" lon="4.7776">
        <ele>189.899993896</ele>
        <time>2015-07-17T10:45:06.895Z</time>
      </trkpt>
      <trkpt lat="45.93634" lon="4.77687">
        <ele>183.300003052</ele>
        <time>2015-07-17T10:45:14.925Z</time>
      </trkpt>
      <trkpt lat="45.9361" lon="4.77636">
        <ele>180.399993896</ele>
        <time>2015-07-17T10:45:19.896Z</time>
      </trkpt>
      <trkpt lat="45.93584" lon="4.77565">
        <ele>177.399993896</ele>
        <time>2015-07-17T10:45:26.896Z</time>
      </trkpt>
      <trkpt lat="45.93482" lon="4.77109">
        <ele>172.699996948</ele>
        <time>2015-07-17T10:46:12.891Z</time>
      </trkpt>
      <trkpt lat="45.93463" lon="4.76988">
        <ele>172.800003052</ele>
        <time>2015-07-17T10:46:24.891Z</time>
      </trkpt>
      <trkpt lat="45.9346" lon="4.76957">
        <ele>173.399993896</ele>
        <time>2015-07-17T10:46:27.894Z</time>
      </trkpt>
      <trkpt lat="45.93451" lon="4.76908">
        <ele>175.100006104</ele>
        <time>2015-07-17T10:46:32.891Z</time>
      </trkpt>
      <trkpt lat="45.93442" lon="4.76882">
        <ele>176</ele>
        <time>2015-07-17T10:46:35.895Z</time>
      </trkpt>
      <trkpt lat="45.93424" lon="4.76838">
        <ele>177</ele>
        <time>2015-07-17T10:46:40.895Z</time>
      </trkpt>
      <trkpt lat="45.93402" lon="4.76801">
        <ele>178.100006104</ele>
        <time>2015-07-17T10:46:45.893Z</time>
      </trkpt>
      <trkpt lat="45.93314" lon="4.76707">
        <ele>180.5</ele>
        <time>2015-07-17T10:47:02.891Z</time>
      </trkpt>
      <trkpt lat="45.93162" lon="4.76559">
        <ele>176.100006104</ele>
        <time>2015-07-17T10:47:32.893Z</time>
      </trkpt>
      <trkpt lat="45.93139" lon="4.76532">
        <ele>175.800003052</ele>
        <time>2015-07-17T10:47:37.893Z</time>
      </trkpt>
      <trkpt lat="45.93066" lon="4.7646">
        <ele>175.899993896</ele>
        <time>2015-07-17T10:47:52.908Z</time>
      </trkpt>
      <trkpt lat="45.92954" lon="4.76356">
        <ele>178.5</ele>
        <time>2015-07-17T10:48:13.893Z</time>
      </trkpt>
      <trkpt lat="45.92869" lon="4.76266">
        <ele>180.699996948</ele>
        <time>2015-07-17T10:48:30.891Z</time>
      </trkpt>
      <trkpt lat="45.92776" lon="4.76175">
        <ele>181.100006104</ele>
        <time>2015-07-17T10:48:48.892Z</time>
      </trkpt>
      <trkpt lat="45.92691" lon="4.76112">
        <ele>179.800003052</ele>
        <time>2015-07-17T10:49:04.891Z</time>
      </trkpt>
      <trkpt lat="45.9264" lon="4.76067">
        <ele>179.600006104</ele>
        <time>2015-07-17T10:49:17.893Z</time>
      </trkpt>
      <trkpt lat="45.92381" lon="4.75887">
        <ele>183.399993896</ele>
        <time>2015-07-17T10:50:14.891Z</time>
      </trkpt>
      <trkpt lat="45.9229" lon="4.7583">
        <ele>182.800003052</ele>
        <time>2015-07-17T10:50:31.891Z</time>
      </trkpt>
      <trkpt lat="45.92275" lon="4.75818">
        <ele>183</ele>
        <time>2015-07-17T10:50:34.891Z</time>
      </trkpt>
      <trkpt lat="45.92268" lon="4.75806">
        <ele>183</ele>
        <time>2015-07-17T10:50:36.891Z</time>
      </trkpt>
      <trkpt lat="45.92259" lon="4.75778">
        <ele>182.300003052</ele>
        <time>2015-07-17T10:50:40.894Z</time>
      </trkpt>
      <trkpt lat="45.92252" lon="4.75739">
        <ele>181.899993896</ele>
        <time>2015-07-17T10:50:45.891Z</time>
      </trkpt>
      <trkpt lat="45.92241" lon="4.7571">
        <ele>180.800003052</ele>
        <time>2015-07-17T10:50:49.888Z</time>
      </trkpt>
      <trkpt lat="45.92234" lon="4.75698">
        <ele>180.100006104</ele>
        <time>2015-07-17T10:50:51.89Z</time>
      </trkpt>
      <trkpt lat="45.92123" lon="4.75584">
        <ele>178.399993896</ele>
        <time>2015-07-17T10:51:17.891Z</time>
      </trkpt>
      <trkpt lat="45.92117" lon="4.75573">
        <ele>179.100006104</ele>
        <time>2015-07-17T10:51:19.922Z</time>
      </trkpt>
      <trkpt lat="45.92117" lon="4.75561">
        <ele>179.100006104</ele>
        <time>2015-07-17T10:51:21.898Z</time>
      </trkpt>
      <trkpt lat="45.92139" lon="4.75521">
        <ele>179.800003052</ele>
        <time>2015-07-17T10:51:28.895Z</time>
      </trkpt>
      <trkpt lat="45.9216" lon="4.75474">
        <ele>180</ele>
        <time>2015-07-17T10:51:35.896Z</time>
      </trkpt>
      <trkpt lat="45.92208" lon="4.75353">
        <ele>175.100006104</ele>
        <time>2015-07-17T10:51:52.952Z</time>
      </trkpt>
      <trkpt lat="45.92215" lon="4.75318">
        <ele>173</ele>
        <time>2015-07-17T10:51:56.891Z</time>
      </trkpt>
      <trkpt lat="45.92216" lon="4.75227">
        <ele>171.100006104</ele>
        <time>2015-07-17T10:52:05.893Z</time>
      </trkpt>
      <trkpt lat="45.92223" lon="4.75186">
        <ele>172.199996948</ele>
        <time>2015-07-17T10:52:09.891Z</time>
      </trkpt>
      <trkpt lat="45.92242" lon="4.75143">
        <ele>177.199996948</ele>
        <time>2015-07-17T10:52:14.891Z</time>
      </trkpt>
      <trkpt lat="45.92256" lon="4.75123">
        <ele>178.100006104</ele>
        <time>2015-07-17T10:52:17.941Z</time>
      </trkpt>
      <trkpt lat="45.92301" lon="4.75074">
        <ele>178.5</ele>
        <time>2015-07-17T10:52:25.891Z</time>
      </trkpt>
      <trkpt lat="45.92323" lon="4.75045">
        <ele>178.199996948</ele>
        <time>2015-07-17T10:52:29.931Z</time>
      </trkpt>
      <trkpt lat="45.92343" lon="4.75001">
        <ele>177.800003052</ele>
        <time>2015-07-17T10:52:34.893Z</time>
      </trkpt>
      <trkpt lat="45.92393" lon="4.74872">
        <ele>172.699996948</ele>
        <time>2015-07-17T10:52:50.891Z</time>
      </trkpt>
      <trkpt lat="45.92403" lon="4.74839">
        <ele>172.100006104</ele>
        <time>2015-07-17T10:52:54.889Z</time>
      </trkpt>
      <trkpt lat="45.92419" lon="4.74769">
        <ele>172.899993896</ele>
        <time>2015-07-17T10:53:02.89Z</time>
      </trkpt>
      <trkpt lat="45.92436" lon="4.74719">
        <ele>174.899993896</ele>
        <time>2015-07-17T10:53:08.892Z</time>
      </trkpt>
      <trkpt lat="45.92449" lon="4.74686">
        <ele>175.300003052</ele>
        <time>2015-07-17T10:53:12.893Z</time>
      </trkpt>
      <trkpt lat="45.92486" lon="4.74624">
        <ele>175.800003052</ele>
        <time>2015-07-17T10:53:21.893Z</time>
      </trkpt>
      <trkpt lat="45.92528" lon="4.74574">
        <ele>177.399993896</ele>
        <time>2015-07-17T10:53:29.893Z</time>
      </trkpt>
      <trkpt lat="45.92548" lon="4.74545">
        <ele>178.399993896</ele>
        <time>2015-07-17T10:53:33.89Z</time>
      </trkpt>
      <trkpt lat="45.92702" lon="4.74264">
        <ele>178.199996948</ele>
        <time>2015-07-17T10:54:12.89Z</time>
      </trkpt>
      <trkpt lat="45.92725" lon="4.74227">
        <ele>178.600006104</ele>
        <time>2015-07-17T10:54:17.907Z</time>
      </trkpt>
      <trkpt lat="45.92757" lon="4.74184">
        <ele>178.300003052</ele>
        <time>2015-07-17T10:54:24.89Z</time>
      </trkpt>
      <trkpt lat="45.92875" lon="4.74054">
        <ele>175.199996948</ele>
        <time>2015-07-17T10:54:47.893Z</time>
      </trkpt>
      <trkpt lat="45.92885" lon="4.74048">
        <ele>175.199996948</ele>
        <time>2015-07-17T10:54:49.914Z</time>
      </trkpt>
      <trkpt lat="45.92903" lon="4.74049">
        <ele>176.300003052</ele>
        <time>2015-07-17T10:54:52.891Z</time>
      </trkpt>
      <trkpt lat="45.92913" lon="4.74041">
        <ele>176.399993896</ele>
        <time>2015-07-17T10:54:54.911Z</time>
      </trkpt>
      <trkpt lat="45.9292" lon="4.74026">
        <ele>177.100006104</ele>
        <time>2015-07-17T10:54:56.891Z</time>
      </trkpt>
      <trkpt lat="45.92919" lon="4.74007">
        <ele>177.399993896</ele>
        <time>2015-07-17T10:54:58.891Z</time>
      </trkpt>
      <trkpt lat="45.92912" lon="4.73992">
        <ele>178.100006104</ele>
        <time>2015-07-17T10:55:00.892Z</time>
      </trkpt>
      <trkpt lat="45.92893" lon="4.73972">
        <ele>177.899993896</ele>
        <time>2015-07-17T10:55:04.891Z</time>
      </trkpt>
      <trkpt lat="45.9289" lon="4.73964">
        <ele>177.699996948</ele>
        <time>2015-07-17T10:55:05.897Z</time>
      </trkpt>
      <trkpt lat="45.92886" lon="4.73902">
        <ele>178.699996948</ele>
        <time>2015-07-17T10:55:12.895Z</time>
      </trkpt>
      <trkpt lat="45.92868" lon="4.73821">
        <ele>179.199996948</ele>
        <time>2015-07-17T10:55:21.907Z</time>
      </trkpt>
      <trkpt lat="45.9286" lon="4.73803">
        <ele>179.399993896</ele>
        <time>2015-07-17T10:55:23.891Z</time>
      </trkpt>
      <trkpt lat="45.9285" lon="4.73789">
        <ele>179.600006104</ele>
        <time>2015-07-17T10:55:25.895Z</time>
      </trkpt>
      <trkpt lat="45.92793" lon="4.73753">
        <ele>179.100006104</ele>
        <time>2015-07-17T10:55:37.909Z</time>
      </trkpt>
      <trkpt lat="45.92776" lon="4.73731">
        <ele>178.199996948</ele>
        <time>2015-07-17T10:55:42.894Z</time>
      </trkpt>
      <trkpt lat="45.92722" lon="4.73712">
        <ele>176.899993896</ele>
        <time>2015-07-17T10:55:51.896Z</time>
      </trkpt>
      <trkpt lat="45.92691" lon="4.73708">
        <ele>176.300003052</ele>
        <time>2015-07-17T10:55:57.89Z</time>
      </trkpt>
      <trkpt lat="45.92669" lon="4.73699">
        <ele>176</ele>
        <time>2015-07-17T10:56:01.929Z</time>
      </trkpt>
      <trkpt lat="45.92646" lon="4.73682">
        <ele>175.100006104</ele>
        <time>2015-07-17T10:56:06.891Z</time>
      </trkpt>
      <trkpt lat="45.92638" lon="4.7367">
        <ele>174.100006104</ele>
        <time>2015-07-17T10:56:08.891Z</time>
      </trkpt>
      <trkpt lat="45.92629" lon="4.73648">
        <ele>173.800003052</ele>
        <time>2015-07-17T10:56:11.893Z</time>
      </trkpt>
      <trkpt lat="45.92618" lon="4.73628">
        <ele>173.300003052</ele>
        <time>2015-07-17T10:56:14.961Z</time>
      </trkpt>
      <trkpt lat="45.92599" lon="4.7362">
        <ele>173.800003052</ele>
        <time>2015-07-17T10:56:17.895Z</time>
      </trkpt>
      <trkpt lat="45.92506" lon="4.73635">
        <ele>176.800003052</ele>
        <time>2015-07-17T10:56:34.893Z</time>
      </trkpt>
      <trkpt lat="45.92487" lon="4.73635">
        <ele>177.100006104</ele>
        <time>2015-07-17T10:56:38.892Z</time>
      </trkpt>
      <trkpt lat="45.92478" lon="4.73637">
        <ele>177.100006104</ele>
        <time>2015-07-17T10:56:40.892Z</time>
      </trkpt>
      <trkpt lat="45.92472" lon="4.73647">
        <ele>177.100006104</ele>
        <time>2015-07-17T10:56:42.917Z</time>
      </trkpt>
      <trkpt lat="45.92467" lon="4.7369">
        <ele>176.899993896</ele>
        <time>2015-07-17T10:56:49.891Z</time>
      </trkpt>
      <trkpt lat="45.92462" lon="4.73705">
        <ele>175.899993896</ele>
        <time>2015-07-17T10:57:31.817Z</time>
      </trkpt>
    </trkseg>
  </trk>
</gpx>